﻿<?xml version="1.0" encoding="UTF-8" standalone="no" ?>
<gpx xmlns="http://www.topografix.com/GPX/1/1" creator="CompeGPS" version="1.1" xmlns:xsi="http://www.w3.org/2001/XMLSchema-instance" xsi:schemaLocation="http://www.topografix.com/GPX/1/1 http://www.topografix.com/GPX/1/1/gpx.xsd http://www.garmin.com/xmlschemas/GpxExtensions/v3 http://www.garmin.com/xmlschemas/GpxExtensionsv3.xsd http://www.garmin.com/xmlschemas/TrackPointExtension/v1 http://www.garmin.com/xmlschemas/TrackPointExtensionv1.xsd" xmlns:gpxtpx="http://www.garmin.com/xmlschemas/TrackPointExtension/v1">
  <metadata>
    <link href="http://www.compegps.com">
      <text>CompeGPS TEAM, SL</text>
    </link>
    <time>2013-01-06T19:27:35Z</time>
    <bounds maxlat="42.973026" maxlon="0.096831" minlat="42.965811" minlon="0.076398"/>
  </metadata>
<wpt lat="42.965820" lon="0.094151">
  <ele>1070</ele>
  <name>Depart Route D29</name>
</wpt>
<wpt lat="42.971558" lon="0.084099">
  <ele>1500</ele>
  <name>Cabane Courtaou de la Lit</name>
</wpt>
<wpt lat="42.971130" lon="0.076398">
  <ele>1640</ele>
  <name>Cabane Benaques</name>
</wpt>
<wpt lat="42.978487" lon="0.085568">
  <ele>1900</ele>
  <name>Debut  Arete SE</name>
</wpt>
<wpt lat="42.981512" lon="0.072644">
  <ele>2140</ele>
  <name>Collet 2140m</name>
</wpt>
  <trk>
    <name>Montaigu - arete SE</name>
    <trkseg>
      <trkpt lat="42.965820" lon="0.094151">
        <ele>1062.4</ele>
        <time>2013-01-05T10:39:59Z</time>
        <name>Depart Route D29</name>
      </trkpt>
      <trkpt lat="42.965832" lon="0.094164">
        <ele>1061.9</ele>
        <time>2013-01-05T10:43:30Z</time>
      </trkpt>
      <trkpt lat="42.965841" lon="0.094169">
        <ele>1062.9</ele>
        <time>2013-01-05T10:47:06Z</time>
      </trkpt>
      <trkpt lat="42.965846" lon="0.094150">
        <ele>1063.4</ele>
        <time>2013-01-05T10:50:19Z</time>
      </trkpt>
      <trkpt lat="42.965856" lon="0.094175">
        <ele>1063.4</ele>
        <time>2013-01-05T10:52:51Z</time>
      </trkpt>
      <trkpt lat="42.965870" lon="0.094130">
        <ele>1063.8</ele>
        <time>2013-01-05T10:55:47Z</time>
      </trkpt>
      <trkpt lat="42.965853" lon="0.094179">
        <ele>1064.3</ele>
        <time>2013-01-05T10:57:27Z</time>
      </trkpt>
      <trkpt lat="42.965847" lon="0.094072">
        <ele>1064.3</ele>
        <time>2013-01-05T10:58:05Z</time>
      </trkpt>
      <trkpt lat="42.965811" lon="0.093978">
        <ele>1065.8</ele>
        <time>2013-01-05T10:58:21Z</time>
      </trkpt>
      <trkpt lat="42.965883" lon="0.093855">
        <ele>1067.7</ele>
        <time>2013-01-05T10:58:40Z</time>
      </trkpt>
      <trkpt lat="42.965962" lon="0.093773">
        <ele>1069.1</ele>
        <time>2013-01-05T10:58:54Z</time>
      </trkpt>
      <trkpt lat="42.966082" lon="0.093774">
        <ele>1070.6</ele>
        <time>2013-01-05T10:59:08Z</time>
      </trkpt>
      <trkpt lat="42.966190" lon="0.093815">
        <ele>1072.0</ele>
        <time>2013-01-05T10:59:20Z</time>
      </trkpt>
      <trkpt lat="42.966277" lon="0.093888">
        <ele>1073.0</ele>
        <time>2013-01-05T10:59:31Z</time>
      </trkpt>
      <trkpt lat="42.966371" lon="0.093975">
        <ele>1073.9</ele>
        <time>2013-01-05T10:59:45Z</time>
      </trkpt>
      <trkpt lat="42.966444" lon="0.094074">
        <ele>1074.4</ele>
        <time>2013-01-05T10:59:56Z</time>
      </trkpt>
      <trkpt lat="42.966506" lon="0.094160">
        <ele>1075.8</ele>
        <time>2013-01-05T11:00:07Z</time>
      </trkpt>
      <trkpt lat="42.966569" lon="0.094250">
        <ele>1076.8</ele>
        <time>2013-01-05T11:00:18Z</time>
      </trkpt>
      <trkpt lat="42.966650" lon="0.094323">
        <ele>1078.3</ele>
        <time>2013-01-05T11:00:29Z</time>
      </trkpt>
      <trkpt lat="42.966725" lon="0.094404">
        <ele>1080.2</ele>
        <time>2013-01-05T11:00:40Z</time>
      </trkpt>
      <trkpt lat="42.966838" lon="0.094496">
        <ele>1081.1</ele>
        <time>2013-01-05T11:00:53Z</time>
      </trkpt>
      <trkpt lat="42.966922" lon="0.094572">
        <ele>1082.1</ele>
        <time>2013-01-05T11:01:05Z</time>
      </trkpt>
      <trkpt lat="42.967014" lon="0.094637">
        <ele>1084.0</ele>
        <time>2013-01-05T11:01:18Z</time>
      </trkpt>
      <trkpt lat="42.967095" lon="0.094740">
        <ele>1085.0</ele>
        <time>2013-01-05T11:01:33Z</time>
      </trkpt>
      <trkpt lat="42.967265" lon="0.094828">
        <ele>1087.9</ele>
        <time>2013-01-05T11:01:49Z</time>
      </trkpt>
      <trkpt lat="42.967360" lon="0.094868">
        <ele>1090.8</ele>
        <time>2013-01-05T11:02:03Z</time>
      </trkpt>
      <trkpt lat="42.967446" lon="0.094829">
        <ele>1092.7</ele>
        <time>2013-01-05T11:02:19Z</time>
      </trkpt>
      <trkpt lat="42.967553" lon="0.094868">
        <ele>1094.6</ele>
        <time>2013-01-05T11:02:31Z</time>
      </trkpt>
      <trkpt lat="42.967630" lon="0.094984">
        <ele>1096.5</ele>
        <time>2013-01-05T11:02:45Z</time>
      </trkpt>
      <trkpt lat="42.967676" lon="0.095094">
        <ele>1098.9</ele>
        <time>2013-01-05T11:02:58Z</time>
      </trkpt>
      <trkpt lat="42.967768" lon="0.095181">
        <ele>1101.3</ele>
        <time>2013-01-05T11:03:12Z</time>
      </trkpt>
      <trkpt lat="42.967844" lon="0.095254">
        <ele>1103.2</ele>
        <time>2013-01-05T11:03:24Z</time>
      </trkpt>
      <trkpt lat="42.967960" lon="0.095314">
        <ele>1105.2</ele>
        <time>2013-01-05T11:03:37Z</time>
      </trkpt>
      <trkpt lat="42.968090" lon="0.095373">
        <ele>1108.1</ele>
        <time>2013-01-05T11:03:55Z</time>
      </trkpt>
      <trkpt lat="42.968183" lon="0.095447">
        <ele>1110.0</ele>
        <time>2013-01-05T11:04:09Z</time>
      </trkpt>
      <trkpt lat="42.968284" lon="0.095511">
        <ele>1111.9</ele>
        <time>2013-01-05T11:04:21Z</time>
      </trkpt>
      <trkpt lat="42.968418" lon="0.095553">
        <ele>1114.3</ele>
        <time>2013-01-05T11:04:38Z</time>
      </trkpt>
      <trkpt lat="42.968545" lon="0.095592">
        <ele>1117.2</ele>
        <time>2013-01-05T11:04:54Z</time>
      </trkpt>
      <trkpt lat="42.968662" lon="0.095576">
        <ele>1119.6</ele>
        <time>2013-01-05T11:05:09Z</time>
      </trkpt>
      <trkpt lat="42.968797" lon="0.095621">
        <ele>1121.5</ele>
        <time>2013-01-05T11:05:25Z</time>
      </trkpt>
      <trkpt lat="42.968886" lon="0.095706">
        <ele>1124.4</ele>
        <time>2013-01-05T11:05:40Z</time>
      </trkpt>
      <trkpt lat="42.968975" lon="0.095788">
        <ele>1126.8</ele>
        <time>2013-01-05T11:05:54Z</time>
      </trkpt>
      <trkpt lat="42.969086" lon="0.095822">
        <ele>1129.7</ele>
        <time>2013-01-05T11:06:09Z</time>
      </trkpt>
      <trkpt lat="42.969207" lon="0.095832">
        <ele>1132.1</ele>
        <time>2013-01-05T11:06:22Z</time>
      </trkpt>
      <trkpt lat="42.969299" lon="0.095850">
        <ele>1134.0</ele>
        <time>2013-01-05T11:06:34Z</time>
      </trkpt>
      <trkpt lat="42.969428" lon="0.095850">
        <ele>1136.4</ele>
        <time>2013-01-05T11:06:50Z</time>
      </trkpt>
      <trkpt lat="42.969581" lon="0.095794">
        <ele>1139.3</ele>
        <time>2013-01-05T11:07:07Z</time>
      </trkpt>
      <trkpt lat="42.969709" lon="0.095872">
        <ele>1141.7</ele>
        <time>2013-01-05T11:07:23Z</time>
      </trkpt>
      <trkpt lat="42.969775" lon="0.095985">
        <ele>1144.6</ele>
        <time>2013-01-05T11:07:39Z</time>
      </trkpt>
      <trkpt lat="42.969850" lon="0.096085">
        <ele>1145.6</ele>
        <time>2013-01-05T11:07:53Z</time>
      </trkpt>
      <trkpt lat="42.969919" lon="0.096195">
        <ele>1148.9</ele>
        <time>2013-01-05T11:08:09Z</time>
      </trkpt>
      <trkpt lat="42.970003" lon="0.096272">
        <ele>1151.3</ele>
        <time>2013-01-05T11:08:25Z</time>
      </trkpt>
      <trkpt lat="42.970109" lon="0.096407">
        <ele>1154.2</ele>
        <time>2013-01-05T11:08:43Z</time>
      </trkpt>
      <trkpt lat="42.970208" lon="0.096474">
        <ele>1155.6</ele>
        <time>2013-01-05T11:08:54Z</time>
      </trkpt>
      <trkpt lat="42.970295" lon="0.096542">
        <ele>1157.6</ele>
        <time>2013-01-05T11:09:06Z</time>
      </trkpt>
      <trkpt lat="42.970416" lon="0.096593">
        <ele>1160.0</ele>
        <time>2013-01-05T11:09:20Z</time>
      </trkpt>
      <trkpt lat="42.970532" lon="0.096616">
        <ele>1162.8</ele>
        <time>2013-01-05T11:09:37Z</time>
      </trkpt>
      <trkpt lat="42.970672" lon="0.096545">
        <ele>1165.3</ele>
        <time>2013-01-05T11:11:04Z</time>
      </trkpt>
      <trkpt lat="42.970760" lon="0.096556">
        <ele>1166.7</ele>
        <time>2013-01-05T11:11:45Z</time>
      </trkpt>
      <trkpt lat="42.970876" lon="0.096652">
        <ele>1169.6</ele>
        <time>2013-01-05T11:12:03Z</time>
      </trkpt>
      <trkpt lat="42.970994" lon="0.096769">
        <ele>1172.0</ele>
        <time>2013-01-05T11:12:19Z</time>
      </trkpt>
      <trkpt lat="42.971101" lon="0.096831">
        <ele>1174.4</ele>
        <time>2013-01-05T11:12:34Z</time>
      </trkpt>
      <trkpt lat="42.971262" lon="0.096777">
        <ele>1177.8</ele>
        <time>2013-01-05T11:12:50Z</time>
      </trkpt>
      <trkpt lat="42.971377" lon="0.096694">
        <ele>1180.6</ele>
        <time>2013-01-05T11:13:10Z</time>
      </trkpt>
      <trkpt lat="42.971509" lon="0.096606">
        <ele>1183.0</ele>
        <time>2013-01-05T11:13:27Z</time>
      </trkpt>
      <trkpt lat="42.971625" lon="0.096554">
        <ele>1185.4</ele>
        <time>2013-01-05T11:13:42Z</time>
      </trkpt>
      <trkpt lat="42.971731" lon="0.096495">
        <ele>1187.8</ele>
        <time>2013-01-05T11:13:58Z</time>
      </trkpt>
      <trkpt lat="42.971721" lon="0.096338">
        <ele>1190.7</ele>
        <time>2013-01-05T11:14:16Z</time>
      </trkpt>
      <trkpt lat="42.971699" lon="0.096311">
        <ele>1194.1</ele>
        <time>2013-01-05T11:14:33Z</time>
      </trkpt>
      <trkpt lat="42.971558" lon="0.096366">
        <ele>1197.0</ele>
        <time>2013-01-05T11:14:51Z</time>
      </trkpt>
      <trkpt lat="42.971392" lon="0.096334">
        <ele>1199.9</ele>
        <time>2013-01-05T11:15:07Z</time>
      </trkpt>
      <trkpt lat="42.971309" lon="0.096165">
        <ele>1202.3</ele>
        <time>2013-01-05T11:15:24Z</time>
      </trkpt>
      <trkpt lat="42.971217" lon="0.096045">
        <ele>1204.2</ele>
        <time>2013-01-05T11:15:42Z</time>
      </trkpt>
      <trkpt lat="42.971162" lon="0.095941">
        <ele>1206.6</ele>
        <time>2013-01-05T11:15:58Z</time>
      </trkpt>
      <trkpt lat="42.971082" lon="0.095838">
        <ele>1209.5</ele>
        <time>2013-01-05T11:16:13Z</time>
      </trkpt>
      <trkpt lat="42.971000" lon="0.095731">
        <ele>1211.4</ele>
        <time>2013-01-05T11:16:28Z</time>
      </trkpt>
      <trkpt lat="42.970932" lon="0.095603">
        <ele>1213.8</ele>
        <time>2013-01-05T11:16:44Z</time>
      </trkpt>
      <trkpt lat="42.970866" lon="0.095480">
        <ele>1216.2</ele>
        <time>2013-01-05T11:16:59Z</time>
      </trkpt>
      <trkpt lat="42.970817" lon="0.095366">
        <ele>1217.7</ele>
        <time>2013-01-05T11:17:12Z</time>
      </trkpt>
      <trkpt lat="42.970750" lon="0.095241">
        <ele>1219.6</ele>
        <time>2013-01-05T11:17:27Z</time>
      </trkpt>
      <trkpt lat="42.970719" lon="0.095097">
        <ele>1222.4</ele>
        <time>2013-01-05T11:17:42Z</time>
      </trkpt>
      <trkpt lat="42.970656" lon="0.094965">
        <ele>1224.9</ele>
        <time>2013-01-05T11:18:00Z</time>
      </trkpt>
      <trkpt lat="42.970621" lon="0.094819">
        <ele>1226.8</ele>
        <time>2013-01-05T11:18:16Z</time>
      </trkpt>
      <trkpt lat="42.970595" lon="0.094674">
        <ele>1229.7</ele>
        <time>2013-01-05T11:18:34Z</time>
      </trkpt>
      <trkpt lat="42.970574" lon="0.094537">
        <ele>1231.1</ele>
        <time>2013-01-05T11:18:47Z</time>
      </trkpt>
      <trkpt lat="42.970530" lon="0.094418">
        <ele>1233.0</ele>
        <time>2013-01-05T11:19:00Z</time>
      </trkpt>
      <trkpt lat="42.970505" lon="0.094298">
        <ele>1235.4</ele>
        <time>2013-01-05T11:19:15Z</time>
      </trkpt>
      <trkpt lat="42.970431" lon="0.094250">
        <ele>1238.3</ele>
        <time>2013-01-05T11:19:32Z</time>
      </trkpt>
      <trkpt lat="42.970348" lon="0.094212">
        <ele>1240.7</ele>
        <time>2013-01-05T11:19:47Z</time>
      </trkpt>
      <trkpt lat="42.970245" lon="0.094109">
        <ele>1242.6</ele>
        <time>2013-01-05T11:20:02Z</time>
      </trkpt>
      <trkpt lat="42.970155" lon="0.093981">
        <ele>1245.5</ele>
        <time>2013-01-05T11:20:20Z</time>
      </trkpt>
      <trkpt lat="42.970125" lon="0.093821">
        <ele>1248.4</ele>
        <time>2013-01-05T11:20:39Z</time>
      </trkpt>
      <trkpt lat="42.970119" lon="0.093639">
        <ele>1251.3</ele>
        <time>2013-01-05T11:20:56Z</time>
      </trkpt>
      <trkpt lat="42.970106" lon="0.093471">
        <ele>1253.2</ele>
        <time>2013-01-05T11:21:12Z</time>
      </trkpt>
      <trkpt lat="42.970076" lon="0.093363">
        <ele>1255.6</ele>
        <time>2013-01-05T11:21:28Z</time>
      </trkpt>
      <trkpt lat="42.970041" lon="0.093206">
        <ele>1258.0</ele>
        <time>2013-01-05T11:21:46Z</time>
      </trkpt>
      <trkpt lat="42.969991" lon="0.093085">
        <ele>1260.9</ele>
        <time>2013-01-05T11:22:03Z</time>
      </trkpt>
      <trkpt lat="42.969981" lon="0.092901">
        <ele>1263.8</ele>
        <time>2013-01-05T11:22:21Z</time>
      </trkpt>
      <trkpt lat="42.969943" lon="0.092768">
        <ele>1266.2</ele>
        <time>2013-01-05T11:22:38Z</time>
      </trkpt>
      <trkpt lat="42.969925" lon="0.092645">
        <ele>1268.1</ele>
        <time>2013-01-05T11:22:51Z</time>
      </trkpt>
      <trkpt lat="42.969907" lon="0.092502">
        <ele>1270.5</ele>
        <time>2013-01-05T11:23:04Z</time>
      </trkpt>
      <trkpt lat="42.969929" lon="0.092357">
        <ele>1272.4</ele>
        <time>2013-01-05T11:23:21Z</time>
      </trkpt>
      <trkpt lat="42.969923" lon="0.092231">
        <ele>1274.4</ele>
        <time>2013-01-05T11:23:34Z</time>
      </trkpt>
      <trkpt lat="42.969877" lon="0.092103">
        <ele>1276.3</ele>
        <time>2013-01-05T11:23:50Z</time>
      </trkpt>
      <trkpt lat="42.969828" lon="0.092017">
        <ele>1278.2</ele>
        <time>2013-01-05T11:24:04Z</time>
      </trkpt>
      <trkpt lat="42.969710" lon="0.091915">
        <ele>1280.6</ele>
        <time>2013-01-05T11:24:25Z</time>
      </trkpt>
      <trkpt lat="42.969651" lon="0.091751">
        <ele>1284.0</ele>
        <time>2013-01-05T11:24:43Z</time>
      </trkpt>
      <trkpt lat="42.969610" lon="0.091619">
        <ele>1285.4</ele>
        <time>2013-01-05T11:24:58Z</time>
      </trkpt>
      <trkpt lat="42.969590" lon="0.091488">
        <ele>1288.8</ele>
        <time>2013-01-05T11:25:17Z</time>
      </trkpt>
      <trkpt lat="42.969562" lon="0.091375">
        <ele>1290.7</ele>
        <time>2013-01-05T11:25:33Z</time>
      </trkpt>
      <trkpt lat="42.969540" lon="0.091228">
        <ele>1295.0</ele>
        <time>2013-01-05T11:25:48Z</time>
      </trkpt>
      <trkpt lat="42.969529" lon="0.091097">
        <ele>1292.2</ele>
        <time>2013-01-05T11:26:03Z</time>
      </trkpt>
      <trkpt lat="42.969459" lon="0.090992">
        <ele>1296.0</ele>
        <time>2013-01-05T11:26:19Z</time>
      </trkpt>
      <trkpt lat="42.969413" lon="0.090865">
        <ele>1300.3</ele>
        <time>2013-01-05T11:26:34Z</time>
      </trkpt>
      <trkpt lat="42.969369" lon="0.090743">
        <ele>1301.3</ele>
        <time>2013-01-05T11:26:49Z</time>
      </trkpt>
      <trkpt lat="42.969307" lon="0.090635">
        <ele>1303.7</ele>
        <time>2013-01-05T11:27:04Z</time>
      </trkpt>
      <trkpt lat="42.969265" lon="0.090507">
        <ele>1306.1</ele>
        <time>2013-01-05T11:27:21Z</time>
      </trkpt>
      <trkpt lat="42.969238" lon="0.090327">
        <ele>1308.5</ele>
        <time>2013-01-05T11:27:36Z</time>
      </trkpt>
      <trkpt lat="42.969192" lon="0.090217">
        <ele>1309.9</ele>
        <time>2013-01-05T11:28:02Z</time>
      </trkpt>
      <trkpt lat="42.969206" lon="0.090056">
        <ele>1311.9</ele>
        <time>2013-01-05T11:28:18Z</time>
      </trkpt>
      <trkpt lat="42.969189" lon="0.089893">
        <ele>1314.7</ele>
        <time>2013-01-05T11:28:35Z</time>
      </trkpt>
      <trkpt lat="42.969202" lon="0.089774">
        <ele>1316.7</ele>
        <time>2013-01-05T11:29:14Z</time>
      </trkpt>
      <trkpt lat="42.969228" lon="0.089645">
        <ele>1319.6</ele>
        <time>2013-01-05T11:29:29Z</time>
      </trkpt>
      <trkpt lat="42.969225" lon="0.089464">
        <ele>1322.4</ele>
        <time>2013-01-05T11:29:47Z</time>
      </trkpt>
      <trkpt lat="42.969177" lon="0.089336">
        <ele>1324.8</ele>
        <time>2013-01-05T11:30:02Z</time>
      </trkpt>
      <trkpt lat="42.969144" lon="0.089209">
        <ele>1327.2</ele>
        <time>2013-01-05T11:30:17Z</time>
      </trkpt>
      <trkpt lat="42.969123" lon="0.089061">
        <ele>1329.2</ele>
        <time>2013-01-05T11:30:33Z</time>
      </trkpt>
      <trkpt lat="42.969122" lon="0.088917">
        <ele>1332.0</ele>
        <time>2013-01-05T11:30:48Z</time>
      </trkpt>
      <trkpt lat="42.969097" lon="0.088779">
        <ele>1334.4</ele>
        <time>2013-01-05T11:31:04Z</time>
      </trkpt>
      <trkpt lat="42.969042" lon="0.088697">
        <ele>1336.8</ele>
        <time>2013-01-05T11:31:19Z</time>
      </trkpt>
      <trkpt lat="42.968966" lon="0.088584">
        <ele>1339.7</ele>
        <time>2013-01-05T11:31:41Z</time>
      </trkpt>
      <trkpt lat="42.968918" lon="0.088388">
        <ele>1342.6</ele>
        <time>2013-01-05T11:32:00Z</time>
      </trkpt>
      <trkpt lat="42.968873" lon="0.088265">
        <ele>1345.0</ele>
        <time>2013-01-05T11:32:17Z</time>
      </trkpt>
      <trkpt lat="42.968849" lon="0.088097">
        <ele>1346.5</ele>
        <time>2013-01-05T11:32:32Z</time>
      </trkpt>
      <trkpt lat="42.968928" lon="0.087958">
        <ele>1348.9</ele>
        <time>2013-01-05T11:32:47Z</time>
      </trkpt>
      <trkpt lat="42.968969" lon="0.087778">
        <ele>1351.8</ele>
        <time>2013-01-05T11:33:02Z</time>
      </trkpt>
      <trkpt lat="42.968967" lon="0.087645">
        <ele>1354.2</ele>
        <time>2013-01-05T11:33:16Z</time>
      </trkpt>
      <trkpt lat="42.968956" lon="0.087528">
        <ele>1357.0</ele>
        <time>2013-01-05T11:33:31Z</time>
      </trkpt>
      <trkpt lat="42.968946" lon="0.087398">
        <ele>1358.5</ele>
        <time>2013-01-05T11:33:44Z</time>
      </trkpt>
      <trkpt lat="42.968936" lon="0.087266">
        <ele>1360.4</ele>
        <time>2013-01-05T11:33:56Z</time>
      </trkpt>
      <trkpt lat="42.968912" lon="0.087147">
        <ele>1362.8</ele>
        <time>2013-01-05T11:34:11Z</time>
      </trkpt>
      <trkpt lat="42.968843" lon="0.087030">
        <ele>1366.2</ele>
        <time>2013-01-05T11:34:29Z</time>
      </trkpt>
      <trkpt lat="42.968763" lon="0.086960">
        <ele>1367.6</ele>
        <time>2013-01-05T11:34:44Z</time>
      </trkpt>
      <trkpt lat="42.968739" lon="0.086844">
        <ele>1370.0</ele>
        <time>2013-01-05T11:34:59Z</time>
      </trkpt>
      <trkpt lat="42.968763" lon="0.086713">
        <ele>1371.9</ele>
        <time>2013-01-05T11:35:15Z</time>
      </trkpt>
      <trkpt lat="42.968695" lon="0.086581">
        <ele>1375.3</ele>
        <time>2013-01-05T11:35:35Z</time>
      </trkpt>
      <trkpt lat="42.968866" lon="0.086443">
        <ele>1378.7</ele>
        <time>2013-01-05T11:36:35Z</time>
      </trkpt>
      <trkpt lat="42.968977" lon="0.086540">
        <ele>1382.0</ele>
        <time>2013-01-05T11:36:58Z</time>
      </trkpt>
      <trkpt lat="42.969097" lon="0.086712">
        <ele>1385.4</ele>
        <time>2013-01-05T11:37:20Z</time>
      </trkpt>
      <trkpt lat="42.969172" lon="0.086837">
        <ele>1387.3</ele>
        <time>2013-01-05T11:37:35Z</time>
      </trkpt>
      <trkpt lat="42.969237" lon="0.086931">
        <ele>1389.2</ele>
        <time>2013-01-05T11:37:49Z</time>
      </trkpt>
      <trkpt lat="42.969326" lon="0.087055">
        <ele>1390.7</ele>
        <time>2013-01-05T11:38:04Z</time>
      </trkpt>
      <trkpt lat="42.969411" lon="0.087148">
        <ele>1392.1</ele>
        <time>2013-01-05T11:38:18Z</time>
      </trkpt>
      <trkpt lat="42.969526" lon="0.087233">
        <ele>1395.0</ele>
        <time>2013-01-05T11:38:35Z</time>
      </trkpt>
      <trkpt lat="42.969646" lon="0.087313">
        <ele>1396.9</ele>
        <time>2013-01-05T11:38:49Z</time>
      </trkpt>
      <trkpt lat="42.969750" lon="0.087501">
        <ele>1400.3</ele>
        <time>2013-01-05T11:39:10Z</time>
      </trkpt>
      <trkpt lat="42.969815" lon="0.087637">
        <ele>1402.7</ele>
        <time>2013-01-05T11:39:26Z</time>
      </trkpt>
      <trkpt lat="42.969941" lon="0.087766">
        <ele>1404.6</ele>
        <time>2013-01-05T11:39:44Z</time>
      </trkpt>
      <trkpt lat="42.970033" lon="0.087884">
        <ele>1405.6</ele>
        <time>2013-01-05T11:40:00Z</time>
      </trkpt>
      <trkpt lat="42.970169" lon="0.087921">
        <ele>1408.5</ele>
        <time>2013-01-05T11:40:18Z</time>
      </trkpt>
      <trkpt lat="42.970248" lon="0.087962">
        <ele>1410.4</ele>
        <time>2013-01-05T11:40:51Z</time>
      </trkpt>
      <trkpt lat="42.970164" lon="0.087874">
        <ele>1413.8</ele>
        <time>2013-01-05T11:41:18Z</time>
      </trkpt>
      <trkpt lat="42.970159" lon="0.087753">
        <ele>1417.6</ele>
        <time>2013-01-05T11:41:37Z</time>
      </trkpt>
      <trkpt lat="42.970188" lon="0.087599">
        <ele>1422.4</ele>
        <time>2013-01-05T11:42:06Z</time>
      </trkpt>
      <trkpt lat="42.970148" lon="0.087422">
        <ele>1424.3</ele>
        <time>2013-01-05T11:42:28Z</time>
      </trkpt>
      <trkpt lat="42.970178" lon="0.087317">
        <ele>1426.7</ele>
        <time>2013-01-05T11:42:46Z</time>
      </trkpt>
      <trkpt lat="42.970233" lon="0.087237">
        <ele>1429.1</ele>
        <time>2013-01-05T11:43:03Z</time>
      </trkpt>
      <trkpt lat="42.970275" lon="0.087209">
        <ele>1433.5</ele>
        <time>2013-01-05T11:43:30Z</time>
      </trkpt>
      <trkpt lat="42.970312" lon="0.086942">
        <ele>1439.7</ele>
        <time>2013-01-05T11:44:08Z</time>
      </trkpt>
      <trkpt lat="42.970422" lon="0.086852">
        <ele>1444.0</ele>
        <time>2013-01-05T11:44:33Z</time>
      </trkpt>
      <trkpt lat="42.970651" lon="0.086925">
        <ele>1448.4</ele>
        <time>2013-01-05T11:45:10Z</time>
      </trkpt>
      <trkpt lat="42.970641" lon="0.086795">
        <ele>1450.3</ele>
        <time>2013-01-05T11:45:39Z</time>
      </trkpt>
      <trkpt lat="42.970538" lon="0.086702">
        <ele>1452.7</ele>
        <time>2013-01-05T11:47:27Z</time>
      </trkpt>
      <trkpt lat="42.970505" lon="0.086589">
        <ele>1455.1</ele>
        <time>2013-01-05T11:47:45Z</time>
      </trkpt>
      <trkpt lat="42.970458" lon="0.086469">
        <ele>1457.0</ele>
        <time>2013-01-05T11:48:00Z</time>
      </trkpt>
      <trkpt lat="42.970387" lon="0.086318">
        <ele>1459.4</ele>
        <time>2013-01-05T11:48:15Z</time>
      </trkpt>
      <trkpt lat="42.970335" lon="0.086130">
        <ele>1461.3</ele>
        <time>2013-01-05T11:48:31Z</time>
      </trkpt>
      <trkpt lat="42.970302" lon="0.085988">
        <ele>1463.7</ele>
        <time>2013-01-05T11:48:45Z</time>
      </trkpt>
      <trkpt lat="42.970354" lon="0.085851">
        <ele>1466.6</ele>
        <time>2013-01-05T11:49:02Z</time>
      </trkpt>
      <trkpt lat="42.970349" lon="0.085679">
        <ele>1470.5</ele>
        <time>2013-01-05T11:49:22Z</time>
      </trkpt>
      <trkpt lat="42.970325" lon="0.085557">
        <ele>1472.9</ele>
        <time>2013-01-05T11:49:37Z</time>
      </trkpt>
      <trkpt lat="42.970285" lon="0.085422">
        <ele>1476.7</ele>
        <time>2013-01-05T11:49:59Z</time>
      </trkpt>
      <trkpt lat="42.970242" lon="0.085301">
        <ele>1480.1</ele>
        <time>2013-01-05T11:50:17Z</time>
      </trkpt>
      <trkpt lat="42.970201" lon="0.085165">
        <ele>1483.0</ele>
        <time>2013-01-05T11:50:37Z</time>
      </trkpt>
      <trkpt lat="42.970180" lon="0.085005">
        <ele>1485.4</ele>
        <time>2013-01-05T11:50:54Z</time>
      </trkpt>
      <trkpt lat="42.970214" lon="0.084854">
        <ele>1487.3</ele>
        <time>2013-01-05T11:51:12Z</time>
      </trkpt>
      <trkpt lat="42.970289" lon="0.084743">
        <ele>1489.7</ele>
        <time>2013-01-05T11:51:27Z</time>
      </trkpt>
      <trkpt lat="42.970381" lon="0.084665">
        <ele>1491.1</ele>
        <time>2013-01-05T11:51:42Z</time>
      </trkpt>
      <trkpt lat="42.970465" lon="0.084586">
        <ele>1492.6</ele>
        <time>2013-01-05T11:51:56Z</time>
      </trkpt>
      <trkpt lat="42.970552" lon="0.084506">
        <ele>1494.0</ele>
        <time>2013-01-05T11:52:07Z</time>
      </trkpt>
      <trkpt lat="42.970649" lon="0.084503">
        <ele>1494.0</ele>
        <time>2013-01-05T11:52:18Z</time>
      </trkpt>
      <trkpt lat="42.970788" lon="0.084452">
        <ele>1494.5</ele>
        <time>2013-01-05T11:52:31Z</time>
      </trkpt>
      <trkpt lat="42.970877" lon="0.084403">
        <ele>1495.0</ele>
        <time>2013-01-05T11:52:58Z</time>
      </trkpt>
      <trkpt lat="42.970968" lon="0.084362">
        <ele>1495.5</ele>
        <time>2013-01-05T11:53:12Z</time>
      </trkpt>
      <trkpt lat="42.971070" lon="0.084322">
        <ele>1496.4</ele>
        <time>2013-01-05T11:53:32Z</time>
      </trkpt>
      <trkpt lat="42.971162" lon="0.084270">
        <ele>1497.9</ele>
        <time>2013-01-05T11:53:45Z</time>
      </trkpt>
      <trkpt lat="42.971263" lon="0.084238">
        <ele>1499.8</ele>
        <time>2013-01-05T11:53:58Z</time>
      </trkpt>
      <trkpt lat="42.971346" lon="0.084198">
        <ele>1501.2</ele>
        <time>2013-01-05T11:54:09Z</time>
      </trkpt>
      <trkpt lat="42.971421" lon="0.084129">
        <ele>1503.6</ele>
        <time>2013-01-05T11:54:22Z</time>
      </trkpt>
      <trkpt lat="42.971511" lon="0.084078">
        <ele>1505.1</ele>
        <time>2013-01-05T11:54:40Z</time>
      </trkpt>
      <trkpt lat="42.971558" lon="0.084099">
        <ele>1504.6</ele>
        <time>2013-01-05T11:55:42Z</time>
        <name>Cabane Courtaou de la Lit</name>
      </trkpt>
      <trkpt lat="42.971527" lon="0.084012">
        <ele>1506.5</ele>
        <time>2013-01-05T12:09:31Z</time>
      </trkpt>
      <trkpt lat="42.971566" lon="0.083983">
        <ele>1507.5</ele>
        <time>2013-01-05T12:11:04Z</time>
      </trkpt>
      <trkpt lat="42.971643" lon="0.083872">
        <ele>1510.4</ele>
        <time>2013-01-05T12:11:27Z</time>
      </trkpt>
      <trkpt lat="42.971697" lon="0.083803">
        <ele>1512.8</ele>
        <time>2013-01-05T12:11:47Z</time>
      </trkpt>
      <trkpt lat="42.971724" lon="0.083652">
        <ele>1514.7</ele>
        <time>2013-01-05T12:12:06Z</time>
      </trkpt>
      <trkpt lat="42.971773" lon="0.083570">
        <ele>1518.1</ele>
        <time>2013-01-05T12:12:29Z</time>
      </trkpt>
      <trkpt lat="42.971863" lon="0.083517">
        <ele>1521.4</ele>
        <time>2013-01-05T12:12:54Z</time>
      </trkpt>
      <trkpt lat="42.971944" lon="0.083465">
        <ele>1524.8</ele>
        <time>2013-01-05T12:13:13Z</time>
      </trkpt>
      <trkpt lat="42.972030" lon="0.083439">
        <ele>1528.2</ele>
        <time>2013-01-05T12:13:41Z</time>
      </trkpt>
      <trkpt lat="42.972120" lon="0.083425">
        <ele>1531.0</ele>
        <time>2013-01-05T12:14:01Z</time>
      </trkpt>
      <trkpt lat="42.972192" lon="0.083339">
        <ele>1534.9</ele>
        <time>2013-01-05T12:14:23Z</time>
      </trkpt>
      <trkpt lat="42.972231" lon="0.083253">
        <ele>1537.3</ele>
        <time>2013-01-05T12:14:44Z</time>
      </trkpt>
      <trkpt lat="42.972296" lon="0.083188">
        <ele>1539.2</ele>
        <time>2013-01-05T12:15:07Z</time>
      </trkpt>
      <trkpt lat="42.972318" lon="0.083067">
        <ele>1542.6</ele>
        <time>2013-01-05T12:15:29Z</time>
      </trkpt>
      <trkpt lat="42.972340" lon="0.082952">
        <ele>1544.0</ele>
        <time>2013-01-05T12:15:47Z</time>
      </trkpt>
      <trkpt lat="42.972378" lon="0.082815">
        <ele>1545.9</ele>
        <time>2013-01-05T12:16:06Z</time>
      </trkpt>
      <trkpt lat="42.972412" lon="0.082699">
        <ele>1547.4</ele>
        <time>2013-01-05T12:16:23Z</time>
      </trkpt>
      <trkpt lat="42.972460" lon="0.082591">
        <ele>1548.8</ele>
        <time>2013-01-05T12:16:41Z</time>
      </trkpt>
      <trkpt lat="42.972520" lon="0.082490">
        <ele>1549.8</ele>
        <time>2013-01-05T12:16:57Z</time>
      </trkpt>
      <trkpt lat="42.972573" lon="0.082378">
        <ele>1551.7</ele>
        <time>2013-01-05T12:17:18Z</time>
      </trkpt>
      <trkpt lat="42.972649" lon="0.082301">
        <ele>1553.6</ele>
        <time>2013-01-05T12:17:36Z</time>
      </trkpt>
      <trkpt lat="42.972720" lon="0.082184">
        <ele>1553.6</ele>
        <time>2013-01-05T12:17:48Z</time>
      </trkpt>
      <trkpt lat="42.972789" lon="0.082099">
        <ele>1555.6</ele>
        <time>2013-01-05T12:18:03Z</time>
      </trkpt>
      <trkpt lat="42.972816" lon="0.081978">
        <ele>1557.5</ele>
        <time>2013-01-05T12:18:19Z</time>
      </trkpt>
      <trkpt lat="42.972864" lon="0.081881">
        <ele>1560.4</ele>
        <time>2013-01-05T12:18:40Z</time>
      </trkpt>
      <trkpt lat="42.972872" lon="0.081753">
        <ele>1562.3</ele>
        <time>2013-01-05T12:18:59Z</time>
      </trkpt>
      <trkpt lat="42.972884" lon="0.081624">
        <ele>1564.2</ele>
        <time>2013-01-05T12:19:19Z</time>
      </trkpt>
      <trkpt lat="42.972911" lon="0.081491">
        <ele>1566.1</ele>
        <time>2013-01-05T12:19:37Z</time>
      </trkpt>
      <trkpt lat="42.972944" lon="0.081357">
        <ele>1567.6</ele>
        <time>2013-01-05T12:19:56Z</time>
      </trkpt>
      <trkpt lat="42.972975" lon="0.081250">
        <ele>1569.5</ele>
        <time>2013-01-05T12:20:12Z</time>
      </trkpt>
      <trkpt lat="42.973018" lon="0.081142">
        <ele>1570.4</ele>
        <time>2013-01-05T12:20:28Z</time>
      </trkpt>
      <trkpt lat="42.973025" lon="0.081008">
        <ele>1571.9</ele>
        <time>2013-01-05T12:20:43Z</time>
      </trkpt>
      <trkpt lat="42.973016" lon="0.080882">
        <ele>1572.4</ele>
        <time>2013-01-05T12:20:56Z</time>
      </trkpt>
      <trkpt lat="42.973017" lon="0.080748">
        <ele>1573.8</ele>
        <time>2013-01-05T12:21:11Z</time>
      </trkpt>
      <trkpt lat="42.972967" lon="0.080636">
        <ele>1574.8</ele>
        <time>2013-01-05T12:21:27Z</time>
      </trkpt>
      <trkpt lat="42.972900" lon="0.080544">
        <ele>1577.2</ele>
        <time>2013-01-05T12:21:44Z</time>
      </trkpt>
      <trkpt lat="42.972839" lon="0.080433">
        <ele>1577.7</ele>
        <time>2013-01-05T12:21:58Z</time>
      </trkpt>
      <trkpt lat="42.972843" lon="0.080288">
        <ele>1579.6</ele>
        <time>2013-01-05T12:22:15Z</time>
      </trkpt>
      <trkpt lat="42.972820" lon="0.080173">
        <ele>1581.5</ele>
        <time>2013-01-05T12:22:35Z</time>
      </trkpt>
      <trkpt lat="42.972792" lon="0.080033">
        <ele>1581.5</ele>
        <time>2013-01-05T12:23:06Z</time>
      </trkpt>
      <trkpt lat="42.972745" lon="0.079980">
        <ele>1580.1</ele>
        <time>2013-01-05T12:23:40Z</time>
      </trkpt>
      <trkpt lat="42.972681" lon="0.080063">
        <ele>1583.9</ele>
        <time>2013-01-05T12:24:29Z</time>
      </trkpt>
      <trkpt lat="42.972621" lon="0.080031">
        <ele>1585.3</ele>
        <time>2013-01-05T12:25:01Z</time>
      </trkpt>
      <trkpt lat="42.972591" lon="0.079929">
        <ele>1586.3</ele>
        <time>2013-01-05T12:25:38Z</time>
      </trkpt>
      <trkpt lat="42.972493" lon="0.079877">
        <ele>1587.8</ele>
        <time>2013-01-05T12:25:59Z</time>
      </trkpt>
      <trkpt lat="42.972479" lon="0.079744">
        <ele>1591.6</ele>
        <time>2013-01-05T12:26:26Z</time>
      </trkpt>
      <trkpt lat="42.972452" lon="0.079610">
        <ele>1595.4</ele>
        <time>2013-01-05T12:26:55Z</time>
      </trkpt>
      <trkpt lat="42.972472" lon="0.079458">
        <ele>1600.2</ele>
        <time>2013-01-05T12:27:32Z</time>
      </trkpt>
      <trkpt lat="42.972468" lon="0.079306">
        <ele>1605.5</ele>
        <time>2013-01-05T12:28:10Z</time>
      </trkpt>
      <trkpt lat="42.972471" lon="0.079175">
        <ele>1606.5</ele>
        <time>2013-01-05T12:28:31Z</time>
      </trkpt>
      <trkpt lat="42.972478" lon="0.079103">
        <ele>1607.0</ele>
        <time>2013-01-05T12:29:39Z</time>
      </trkpt>
      <trkpt lat="42.972481" lon="0.078966">
        <ele>1607.5</ele>
        <time>2013-01-05T12:29:56Z</time>
      </trkpt>
      <trkpt lat="42.972452" lon="0.078854">
        <ele>1609.4</ele>
        <time>2013-01-05T12:30:13Z</time>
      </trkpt>
      <trkpt lat="42.972393" lon="0.078732">
        <ele>1611.3</ele>
        <time>2013-01-05T12:30:35Z</time>
      </trkpt>
      <trkpt lat="42.972350" lon="0.078615">
        <ele>1612.3</ele>
        <time>2013-01-05T12:30:53Z</time>
      </trkpt>
      <trkpt lat="42.972294" lon="0.078492">
        <ele>1614.2</ele>
        <time>2013-01-05T12:31:10Z</time>
      </trkpt>
      <trkpt lat="42.972232" lon="0.078404">
        <ele>1615.2</ele>
        <time>2013-01-05T12:31:24Z</time>
      </trkpt>
      <trkpt lat="42.972170" lon="0.078319">
        <ele>1616.6</ele>
        <time>2013-01-05T12:31:41Z</time>
      </trkpt>
      <trkpt lat="42.972108" lon="0.078214">
        <ele>1618.5</ele>
        <time>2013-01-05T12:32:03Z</time>
      </trkpt>
      <trkpt lat="42.972038" lon="0.078152">
        <ele>1620.4</ele>
        <time>2013-01-05T12:32:23Z</time>
      </trkpt>
      <trkpt lat="42.971968" lon="0.078069">
        <ele>1622.4</ele>
        <time>2013-01-05T12:32:40Z</time>
      </trkpt>
      <trkpt lat="42.971889" lon="0.077992">
        <ele>1623.8</ele>
        <time>2013-01-05T12:32:59Z</time>
      </trkpt>
      <trkpt lat="42.971800" lon="0.077922">
        <ele>1625.2</ele>
        <time>2013-01-05T12:33:17Z</time>
      </trkpt>
      <trkpt lat="42.971722" lon="0.077872">
        <ele>1626.7</ele>
        <time>2013-01-05T12:33:36Z</time>
      </trkpt>
      <trkpt lat="42.971641" lon="0.077801">
        <ele>1628.1</ele>
        <time>2013-01-05T12:33:54Z</time>
      </trkpt>
      <trkpt lat="42.971576" lon="0.077711">
        <ele>1630.5</ele>
        <time>2013-01-05T12:34:16Z</time>
      </trkpt>
      <trkpt lat="42.971523" lon="0.077615">
        <ele>1633.4</ele>
        <time>2013-01-05T12:34:43Z</time>
      </trkpt>
      <trkpt lat="42.971491" lon="0.077484">
        <ele>1637.3</ele>
        <time>2013-01-05T12:35:11Z</time>
      </trkpt>
      <trkpt lat="42.971447" lon="0.077369">
        <ele>1638.2</ele>
        <time>2013-01-05T12:35:33Z</time>
      </trkpt>
      <trkpt lat="42.971450" lon="0.077260">
        <ele>1638.2</ele>
        <time>2013-01-05T12:36:21Z</time>
      </trkpt>
      <trkpt lat="42.971464" lon="0.077136">
        <ele>1638.7</ele>
        <time>2013-01-05T12:36:34Z</time>
      </trkpt>
      <trkpt lat="42.971469" lon="0.077010">
        <ele>1639.2</ele>
        <time>2013-01-05T12:36:46Z</time>
      </trkpt>
      <trkpt lat="42.971469" lon="0.076875">
        <ele>1639.2</ele>
        <time>2013-01-05T12:36:58Z</time>
      </trkpt>
      <trkpt lat="42.971458" lon="0.076749">
        <ele>1639.2</ele>
        <time>2013-01-05T12:37:11Z</time>
      </trkpt>
      <trkpt lat="42.971395" lon="0.076651">
        <ele>1639.2</ele>
        <time>2013-01-05T12:37:22Z</time>
      </trkpt>
      <trkpt lat="42.971327" lon="0.076548">
        <ele>1639.7</ele>
        <time>2013-01-05T12:37:34Z</time>
      </trkpt>
      <trkpt lat="42.971250" lon="0.076460">
        <ele>1639.7</ele>
        <time>2013-01-05T12:37:46Z</time>
      </trkpt>
      <trkpt lat="42.971164" lon="0.076467">
        <ele>1638.7</ele>
        <time>2013-01-05T12:37:58Z</time>
      </trkpt>
      <trkpt lat="42.971130" lon="0.076398">
        <ele>1636.8</ele>
        <time>2013-01-05T12:59:48Z</time>
        <name>Cabane Benaques</name>
      </trkpt>
      <trkpt lat="42.971113" lon="0.076428">
        <ele>1600.7</ele>
        <time>2013-01-06T05:33:27Z</time>
      </trkpt>
      <trkpt lat="42.971110" lon="0.076438">
        <ele>1628.6</ele>
        <time>2013-01-06T05:35:16Z</time>
      </trkpt>
      <trkpt lat="42.971217" lon="0.076429">
        <ele>1632.5</ele>
        <time>2013-01-06T05:35:27Z</time>
      </trkpt>
      <trkpt lat="42.971310" lon="0.076505">
        <ele>1634.4</ele>
        <time>2013-01-06T05:35:38Z</time>
      </trkpt>
      <trkpt lat="42.971387" lon="0.076597">
        <ele>1635.3</ele>
        <time>2013-01-06T05:35:47Z</time>
      </trkpt>
      <trkpt lat="42.971457" lon="0.076712">
        <ele>1636.3</ele>
        <time>2013-01-06T05:35:56Z</time>
      </trkpt>
      <trkpt lat="42.971479" lon="0.076835">
        <ele>1637.7</ele>
        <time>2013-01-06T05:36:05Z</time>
      </trkpt>
      <trkpt lat="42.971479" lon="0.076976">
        <ele>1639.2</ele>
        <time>2013-01-06T05:36:15Z</time>
      </trkpt>
      <trkpt lat="42.971475" lon="0.077111">
        <ele>1638.7</ele>
        <time>2013-01-06T05:36:25Z</time>
      </trkpt>
      <trkpt lat="42.971471" lon="0.077249">
        <ele>1638.2</ele>
        <time>2013-01-06T05:36:34Z</time>
      </trkpt>
      <trkpt lat="42.971461" lon="0.077377">
        <ele>1638.2</ele>
        <time>2013-01-06T05:36:44Z</time>
      </trkpt>
      <trkpt lat="42.971484" lon="0.077516">
        <ele>1636.8</ele>
        <time>2013-01-06T05:36:58Z</time>
      </trkpt>
      <trkpt lat="42.971538" lon="0.077628">
        <ele>1634.4</ele>
        <time>2013-01-06T05:37:13Z</time>
      </trkpt>
      <trkpt lat="42.971600" lon="0.077742">
        <ele>1631.0</ele>
        <time>2013-01-06T05:37:30Z</time>
      </trkpt>
      <trkpt lat="42.971777" lon="0.077907">
        <ele>1626.2</ele>
        <time>2013-01-06T05:38:21Z</time>
      </trkpt>
      <trkpt lat="42.971849" lon="0.077964">
        <ele>1624.8</ele>
        <time>2013-01-06T05:38:36Z</time>
      </trkpt>
      <trkpt lat="42.971925" lon="0.078028">
        <ele>1623.8</ele>
        <time>2013-01-06T05:38:48Z</time>
      </trkpt>
      <trkpt lat="42.972011" lon="0.078081">
        <ele>1623.8</ele>
        <time>2013-01-06T05:39:04Z</time>
      </trkpt>
      <trkpt lat="42.972091" lon="0.078150">
        <ele>1623.3</ele>
        <time>2013-01-06T05:39:17Z</time>
      </trkpt>
      <trkpt lat="42.972182" lon="0.078185">
        <ele>1622.8</ele>
        <time>2013-01-06T05:39:32Z</time>
      </trkpt>
      <trkpt lat="42.972270" lon="0.078239">
        <ele>1622.4</ele>
        <time>2013-01-06T05:39:47Z</time>
      </trkpt>
      <trkpt lat="42.972364" lon="0.078281">
        <ele>1623.3</ele>
        <time>2013-01-06T05:40:01Z</time>
      </trkpt>
      <trkpt lat="42.972468" lon="0.078328">
        <ele>1623.3</ele>
        <time>2013-01-06T05:40:26Z</time>
      </trkpt>
      <trkpt lat="42.972592" lon="0.078343">
        <ele>1627.7</ele>
        <time>2013-01-06T05:41:06Z</time>
      </trkpt>
      <trkpt lat="42.972684" lon="0.078378">
        <ele>1630.5</ele>
        <time>2013-01-06T05:41:28Z</time>
      </trkpt>
      <trkpt lat="42.972681" lon="0.078320">
        <ele>1634.9</ele>
        <time>2013-01-06T05:41:57Z</time>
      </trkpt>
      <trkpt lat="42.972777" lon="0.078295">
        <ele>1637.3</ele>
        <time>2013-01-06T05:42:16Z</time>
      </trkpt>
      <trkpt lat="42.972866" lon="0.078331">
        <ele>1637.7</ele>
        <time>2013-01-06T05:42:32Z</time>
      </trkpt>
      <trkpt lat="42.972861" lon="0.078321">
        <ele>1638.2</ele>
        <time>2013-01-06T05:47:53Z</time>
      </trkpt>
      <trkpt lat="42.972955" lon="0.078374">
        <ele>1637.7</ele>
        <time>2013-01-06T05:49:04Z</time>
      </trkpt>
      <trkpt lat="42.973042" lon="0.078421">
        <ele>1638.2</ele>
        <time>2013-01-06T05:49:26Z</time>
      </trkpt>
      <trkpt lat="42.973152" lon="0.078460">
        <ele>1639.7</ele>
        <time>2013-01-06T05:49:40Z</time>
      </trkpt>
      <trkpt lat="42.973236" lon="0.078486">
        <ele>1640.6</ele>
        <time>2013-01-06T05:49:55Z</time>
      </trkpt>
      <trkpt lat="42.973338" lon="0.078474">
        <ele>1637.7</ele>
        <time>2013-01-06T05:50:17Z</time>
      </trkpt>
      <trkpt lat="42.973334" lon="0.078585">
        <ele>1638.7</ele>
        <time>2013-01-06T05:50:33Z</time>
      </trkpt>
      <trkpt lat="42.973380" lon="0.078704">
        <ele>1638.7</ele>
        <time>2013-01-06T05:50:52Z</time>
      </trkpt>
      <trkpt lat="42.973458" lon="0.078794">
        <ele>1640.2</ele>
        <time>2013-01-06T05:51:15Z</time>
      </trkpt>
      <trkpt lat="42.973513" lon="0.078894">
        <ele>1641.1</ele>
        <time>2013-01-06T05:51:30Z</time>
      </trkpt>
      <trkpt lat="42.973601" lon="0.078971">
        <ele>1641.6</ele>
        <time>2013-01-06T05:51:46Z</time>
      </trkpt>
      <trkpt lat="42.973664" lon="0.079081">
        <ele>1642.6</ele>
        <time>2013-01-06T05:51:59Z</time>
      </trkpt>
      <trkpt lat="42.973702" lon="0.079200">
        <ele>1643.5</ele>
        <time>2013-01-06T05:52:10Z</time>
      </trkpt>
      <trkpt lat="42.973760" lon="0.079319">
        <ele>1640.6</ele>
        <time>2013-01-06T05:52:35Z</time>
      </trkpt>
      <trkpt lat="42.973743" lon="0.079445">
        <ele>1644.5</ele>
        <time>2013-01-06T05:52:57Z</time>
      </trkpt>
      <trkpt lat="42.973753" lon="0.079568">
        <ele>1644.9</ele>
        <time>2013-01-06T05:53:09Z</time>
      </trkpt>
      <trkpt lat="42.973805" lon="0.079615">
        <ele>1647.8</ele>
        <time>2013-01-06T05:53:28Z</time>
      </trkpt>
      <trkpt lat="42.973912" lon="0.079626">
        <ele>1652.6</ele>
        <time>2013-01-06T05:53:57Z</time>
      </trkpt>
      <trkpt lat="42.973999" lon="0.079650">
        <ele>1656.5</ele>
        <time>2013-01-06T05:54:24Z</time>
      </trkpt>
      <trkpt lat="42.974004" lon="0.079750">
        <ele>1658.9</ele>
        <time>2013-01-06T05:54:43Z</time>
      </trkpt>
      <trkpt lat="42.974068" lon="0.079823">
        <ele>1661.8</ele>
        <time>2013-01-06T05:55:03Z</time>
      </trkpt>
      <trkpt lat="42.974128" lon="0.079916">
        <ele>1664.7</ele>
        <time>2013-01-06T05:55:23Z</time>
      </trkpt>
      <trkpt lat="42.974149" lon="0.080000">
        <ele>1667.1</ele>
        <time>2013-01-06T05:55:43Z</time>
      </trkpt>
      <trkpt lat="42.974235" lon="0.080091">
        <ele>1669.0</ele>
        <time>2013-01-06T05:56:04Z</time>
      </trkpt>
      <trkpt lat="42.974326" lon="0.080168">
        <ele>1671.4</ele>
        <time>2013-01-06T05:56:25Z</time>
      </trkpt>
      <trkpt lat="42.974433" lon="0.080211">
        <ele>1675.7</ele>
        <time>2013-01-06T05:56:55Z</time>
      </trkpt>
      <trkpt lat="42.974488" lon="0.080208">
        <ele>1679.6</ele>
        <time>2013-01-06T05:57:22Z</time>
      </trkpt>
      <trkpt lat="42.974557" lon="0.080247">
        <ele>1686.3</ele>
        <time>2013-01-06T05:57:57Z</time>
      </trkpt>
      <trkpt lat="42.974621" lon="0.080255">
        <ele>1673.3</ele>
        <time>2013-01-06T05:58:27Z</time>
      </trkpt>
      <trkpt lat="42.974713" lon="0.080315">
        <ele>1691.1</ele>
        <time>2013-01-06T05:58:58Z</time>
      </trkpt>
      <trkpt lat="42.974818" lon="0.080324">
        <ele>1694.9</ele>
        <time>2013-01-06T05:59:20Z</time>
      </trkpt>
      <trkpt lat="42.974878" lon="0.080360">
        <ele>1698.8</ele>
        <time>2013-01-06T05:59:43Z</time>
      </trkpt>
      <trkpt lat="42.974948" lon="0.080435">
        <ele>1703.6</ele>
        <time>2013-01-06T06:00:17Z</time>
      </trkpt>
      <trkpt lat="42.975009" lon="0.080534">
        <ele>1709.8</ele>
        <time>2013-01-06T06:00:56Z</time>
      </trkpt>
      <trkpt lat="42.975033" lon="0.080634">
        <ele>1715.1</ele>
        <time>2013-01-06T06:01:42Z</time>
      </trkpt>
      <trkpt lat="42.975094" lon="0.080756">
        <ele>1719.0</ele>
        <time>2013-01-06T06:02:13Z</time>
      </trkpt>
      <trkpt lat="42.975125" lon="0.080825">
        <ele>1724.3</ele>
        <time>2013-01-06T06:02:51Z</time>
      </trkpt>
      <trkpt lat="42.975174" lon="0.080954">
        <ele>1728.6</ele>
        <time>2013-01-06T06:03:20Z</time>
      </trkpt>
      <trkpt lat="42.975198" lon="0.081018">
        <ele>1729.6</ele>
        <time>2013-01-06T06:05:42Z</time>
      </trkpt>
      <trkpt lat="42.975255" lon="0.081131">
        <ele>1731.5</ele>
        <time>2013-01-06T06:06:01Z</time>
      </trkpt>
      <trkpt lat="42.975301" lon="0.081214">
        <ele>1732.9</ele>
        <time>2013-01-06T06:06:16Z</time>
      </trkpt>
      <trkpt lat="42.975337" lon="0.081319">
        <ele>1734.8</ele>
        <time>2013-01-06T06:06:35Z</time>
      </trkpt>
      <trkpt lat="42.975395" lon="0.081443">
        <ele>1736.8</ele>
        <time>2013-01-06T06:06:54Z</time>
      </trkpt>
      <trkpt lat="42.975422" lon="0.081540">
        <ele>1737.2</ele>
        <time>2013-01-06T06:07:07Z</time>
      </trkpt>
      <trkpt lat="42.975469" lon="0.081612">
        <ele>1739.6</ele>
        <time>2013-01-06T06:07:23Z</time>
      </trkpt>
      <trkpt lat="42.975488" lon="0.081731">
        <ele>1740.1</ele>
        <time>2013-01-06T06:07:38Z</time>
      </trkpt>
      <trkpt lat="42.975503" lon="0.081825">
        <ele>1741.6</ele>
        <time>2013-01-06T06:07:55Z</time>
      </trkpt>
      <trkpt lat="42.975538" lon="0.081948">
        <ele>1743.0</ele>
        <time>2013-01-06T06:08:13Z</time>
      </trkpt>
      <trkpt lat="42.975577" lon="0.082050">
        <ele>1743.0</ele>
        <time>2013-01-06T06:08:29Z</time>
      </trkpt>
      <trkpt lat="42.975648" lon="0.082159">
        <ele>1744.9</ele>
        <time>2013-01-06T06:09:09Z</time>
      </trkpt>
      <trkpt lat="42.975717" lon="0.082253">
        <ele>1743.0</ele>
        <time>2013-01-06T06:09:19Z</time>
      </trkpt>
      <trkpt lat="42.975751" lon="0.082354">
        <ele>1742.1</ele>
        <time>2013-01-06T06:09:30Z</time>
      </trkpt>
      <trkpt lat="42.975778" lon="0.082459">
        <ele>1741.1</ele>
        <time>2013-01-06T06:09:43Z</time>
      </trkpt>
      <trkpt lat="42.975781" lon="0.082589">
        <ele>1739.2</ele>
        <time>2013-01-06T06:09:54Z</time>
      </trkpt>
      <trkpt lat="42.975821" lon="0.082700">
        <ele>1739.6</ele>
        <time>2013-01-06T06:10:07Z</time>
      </trkpt>
      <trkpt lat="42.975882" lon="0.082811">
        <ele>1741.1</ele>
        <time>2013-01-06T06:10:19Z</time>
      </trkpt>
      <trkpt lat="42.975924" lon="0.082914">
        <ele>1742.5</ele>
        <time>2013-01-06T06:10:31Z</time>
      </trkpt>
      <trkpt lat="42.975935" lon="0.083028">
        <ele>1744.4</ele>
        <time>2013-01-06T06:10:46Z</time>
      </trkpt>
      <trkpt lat="42.975965" lon="0.083158">
        <ele>1745.4</ele>
        <time>2013-01-06T06:11:03Z</time>
      </trkpt>
      <trkpt lat="42.975999" lon="0.083282">
        <ele>1746.8</ele>
        <time>2013-01-06T06:11:21Z</time>
      </trkpt>
      <trkpt lat="42.976027" lon="0.083387">
        <ele>1749.3</ele>
        <time>2013-01-06T06:11:38Z</time>
      </trkpt>
      <trkpt lat="42.976062" lon="0.083496">
        <ele>1750.7</ele>
        <time>2013-01-06T06:11:53Z</time>
      </trkpt>
      <trkpt lat="42.976097" lon="0.083609">
        <ele>1754.1</ele>
        <time>2013-01-06T06:12:10Z</time>
      </trkpt>
      <trkpt lat="42.976118" lon="0.083707">
        <ele>1755.5</ele>
        <time>2013-01-06T06:12:25Z</time>
      </trkpt>
      <trkpt lat="42.976159" lon="0.083840">
        <ele>1758.9</ele>
        <time>2013-01-06T06:12:42Z</time>
      </trkpt>
      <trkpt lat="42.976181" lon="0.083950">
        <ele>1761.3</ele>
        <time>2013-01-06T06:12:59Z</time>
      </trkpt>
      <trkpt lat="42.976215" lon="0.084066">
        <ele>1762.7</ele>
        <time>2013-01-06T06:13:14Z</time>
      </trkpt>
      <trkpt lat="42.976231" lon="0.084179">
        <ele>1764.6</ele>
        <time>2013-01-06T06:13:30Z</time>
      </trkpt>
      <trkpt lat="42.976250" lon="0.084285">
        <ele>1766.6</ele>
        <time>2013-01-06T06:13:47Z</time>
      </trkpt>
      <trkpt lat="42.976270" lon="0.084407">
        <ele>1769.4</ele>
        <time>2013-01-06T06:14:04Z</time>
      </trkpt>
      <trkpt lat="42.976261" lon="0.084493">
        <ele>1771.4</ele>
        <time>2013-01-06T06:14:26Z</time>
      </trkpt>
      <trkpt lat="42.976276" lon="0.084619">
        <ele>1775.2</ele>
        <time>2013-01-06T06:14:55Z</time>
      </trkpt>
      <trkpt lat="42.976314" lon="0.084717">
        <ele>1778.6</ele>
        <time>2013-01-06T06:15:26Z</time>
      </trkpt>
      <trkpt lat="42.976396" lon="0.084734">
        <ele>1784.3</ele>
        <time>2013-01-06T06:15:57Z</time>
      </trkpt>
      <trkpt lat="42.976458" lon="0.084662">
        <ele>1787.2</ele>
        <time>2013-01-06T06:16:21Z</time>
      </trkpt>
      <trkpt lat="42.976510" lon="0.084789">
        <ele>1790.6</ele>
        <time>2013-01-06T06:16:42Z</time>
      </trkpt>
      <trkpt lat="42.976540" lon="0.084905">
        <ele>1794.0</ele>
        <time>2013-01-06T06:17:02Z</time>
      </trkpt>
      <trkpt lat="42.976572" lon="0.085019">
        <ele>1796.8</ele>
        <time>2013-01-06T06:17:26Z</time>
      </trkpt>
      <trkpt lat="42.976631" lon="0.085094">
        <ele>1801.7</ele>
        <time>2013-01-06T06:17:54Z</time>
      </trkpt>
      <trkpt lat="42.976697" lon="0.085010">
        <ele>1805.5</ele>
        <time>2013-01-06T06:18:20Z</time>
      </trkpt>
      <trkpt lat="42.976770" lon="0.084935">
        <ele>1807.9</ele>
        <time>2013-01-06T06:18:42Z</time>
      </trkpt>
      <trkpt lat="42.976816" lon="0.085010">
        <ele>1812.2</ele>
        <time>2013-01-06T06:19:16Z</time>
      </trkpt>
      <trkpt lat="42.976863" lon="0.085101">
        <ele>1816.1</ele>
        <time>2013-01-06T06:19:39Z</time>
      </trkpt>
      <trkpt lat="42.976929" lon="0.085190">
        <ele>1821.3</ele>
        <time>2013-01-06T06:20:07Z</time>
      </trkpt>
      <trkpt lat="42.976979" lon="0.085267">
        <ele>1822.8</ele>
        <time>2013-01-06T06:21:55Z</time>
      </trkpt>
      <trkpt lat="42.977064" lon="0.085333">
        <ele>1827.6</ele>
        <time>2013-01-06T06:22:21Z</time>
      </trkpt>
      <trkpt lat="42.977154" lon="0.085391">
        <ele>1830.5</ele>
        <time>2013-01-06T06:22:48Z</time>
      </trkpt>
      <trkpt lat="42.977241" lon="0.085435">
        <ele>1834.3</ele>
        <time>2013-01-06T06:23:11Z</time>
      </trkpt>
      <trkpt lat="42.977334" lon="0.085480">
        <ele>1837.2</ele>
        <time>2013-01-06T06:23:36Z</time>
      </trkpt>
      <trkpt lat="42.977442" lon="0.085541">
        <ele>1842.5</ele>
        <time>2013-01-06T06:24:14Z</time>
      </trkpt>
      <trkpt lat="42.977555" lon="0.085583">
        <ele>1847.3</ele>
        <time>2013-01-06T06:24:47Z</time>
      </trkpt>
      <trkpt lat="42.977652" lon="0.085617">
        <ele>1852.6</ele>
        <time>2013-01-06T06:25:20Z</time>
      </trkpt>
      <trkpt lat="42.977728" lon="0.085592">
        <ele>1856.9</ele>
        <time>2013-01-06T06:25:41Z</time>
      </trkpt>
      <trkpt lat="42.977815" lon="0.085670">
        <ele>1858.8</ele>
        <time>2013-01-06T06:25:57Z</time>
      </trkpt>
      <trkpt lat="42.977853" lon="0.085605">
        <ele>1863.2</ele>
        <time>2013-01-06T06:26:18Z</time>
      </trkpt>
      <trkpt lat="42.977918" lon="0.085508">
        <ele>1868.5</ele>
        <time>2013-01-06T06:26:45Z</time>
      </trkpt>
      <trkpt lat="42.978015" lon="0.085587">
        <ele>1871.8</ele>
        <time>2013-01-06T06:27:08Z</time>
      </trkpt>
      <trkpt lat="42.978123" lon="0.085621">
        <ele>1875.2</ele>
        <time>2013-01-06T06:27:34Z</time>
      </trkpt>
      <trkpt lat="42.978215" lon="0.085652">
        <ele>1877.6</ele>
        <time>2013-01-06T06:28:00Z</time>
      </trkpt>
      <trkpt lat="42.978288" lon="0.085640">
        <ele>1881.0</ele>
        <time>2013-01-06T06:28:27Z</time>
      </trkpt>
      <trkpt lat="42.978330" lon="0.085569">
        <ele>1885.8</ele>
        <time>2013-01-06T06:28:52Z</time>
      </trkpt>
      <trkpt lat="42.978404" lon="0.085507">
        <ele>1889.6</ele>
        <time>2013-01-06T06:29:22Z</time>
      </trkpt>
      <trkpt lat="42.978455" lon="0.085518">
        <ele>1891.5</ele>
        <time>2013-01-06T06:29:53Z</time>
      </trkpt>
      <trkpt lat="42.978487" lon="0.085568">
        <ele>1891.5</ele>
        <time>2013-01-06T06:30:20Z</time>
        <name>Debut  Arete SE</name>
      </trkpt>
      <trkpt lat="42.978496" lon="0.085567">
        <ele>1895.9</ele>
        <time>2013-01-06T06:54:09Z</time>
      </trkpt>
      <trkpt lat="42.978483" lon="0.085582">
        <ele>1896.3</ele>
        <time>2013-01-06T06:58:43Z</time>
      </trkpt>
      <trkpt lat="42.978467" lon="0.085514">
        <ele>1896.3</ele>
        <time>2013-01-06T07:01:42Z</time>
      </trkpt>
      <trkpt lat="42.978428" lon="0.085395">
        <ele>1896.8</ele>
        <time>2013-01-06T07:01:56Z</time>
      </trkpt>
      <trkpt lat="42.978375" lon="0.085292">
        <ele>1899.2</ele>
        <time>2013-01-06T07:02:15Z</time>
      </trkpt>
      <trkpt lat="42.978323" lon="0.085196">
        <ele>1901.1</ele>
        <time>2013-01-06T07:02:32Z</time>
      </trkpt>
      <trkpt lat="42.978296" lon="0.085086">
        <ele>1902.1</ele>
        <time>2013-01-06T07:02:46Z</time>
      </trkpt>
      <trkpt lat="42.978278" lon="0.084971">
        <ele>1903.6</ele>
        <time>2013-01-06T07:03:02Z</time>
      </trkpt>
      <trkpt lat="42.978276" lon="0.084850">
        <ele>1906.4</ele>
        <time>2013-01-06T07:03:30Z</time>
      </trkpt>
      <trkpt lat="42.978273" lon="0.084738">
        <ele>1910.8</ele>
        <time>2013-01-06T07:03:58Z</time>
      </trkpt>
      <trkpt lat="42.978254" lon="0.084645">
        <ele>1914.1</ele>
        <time>2013-01-06T07:05:00Z</time>
      </trkpt>
      <trkpt lat="42.978279" lon="0.084575">
        <ele>1918.0</ele>
        <time>2013-01-06T07:05:53Z</time>
      </trkpt>
      <trkpt lat="42.978305" lon="0.084472">
        <ele>1922.8</ele>
        <time>2013-01-06T07:06:16Z</time>
      </trkpt>
      <trkpt lat="42.978292" lon="0.084355">
        <ele>1925.2</ele>
        <time>2013-01-06T07:06:35Z</time>
      </trkpt>
      <trkpt lat="42.978282" lon="0.084237">
        <ele>1928.1</ele>
        <time>2013-01-06T07:06:54Z</time>
      </trkpt>
      <trkpt lat="42.978267" lon="0.084122">
        <ele>1930.0</ele>
        <time>2013-01-06T07:07:20Z</time>
      </trkpt>
      <trkpt lat="42.978267" lon="0.084023">
        <ele>1929.5</ele>
        <time>2013-01-06T07:07:41Z</time>
      </trkpt>
      <trkpt lat="42.978238" lon="0.083932">
        <ele>1929.5</ele>
        <time>2013-01-06T07:09:17Z</time>
      </trkpt>
      <trkpt lat="42.978232" lon="0.083797">
        <ele>1933.3</ele>
        <time>2013-01-06T07:09:53Z</time>
      </trkpt>
      <trkpt lat="42.978237" lon="0.083689">
        <ele>1937.2</ele>
        <time>2013-01-06T07:10:20Z</time>
      </trkpt>
      <trkpt lat="42.978242" lon="0.083582">
        <ele>1937.7</ele>
        <time>2013-01-06T07:11:21Z</time>
      </trkpt>
      <trkpt lat="42.978235" lon="0.083457">
        <ele>1937.2</ele>
        <time>2013-01-06T07:12:00Z</time>
      </trkpt>
      <trkpt lat="42.978232" lon="0.083331">
        <ele>1936.7</ele>
        <time>2013-01-06T07:12:14Z</time>
      </trkpt>
      <trkpt lat="42.978257" lon="0.083208">
        <ele>1936.7</ele>
        <time>2013-01-06T07:12:35Z</time>
      </trkpt>
      <trkpt lat="42.978275" lon="0.083097">
        <ele>1936.2</ele>
        <time>2013-01-06T07:12:53Z</time>
      </trkpt>
      <trkpt lat="42.978281" lon="0.082965">
        <ele>1934.3</ele>
        <time>2013-01-06T07:13:34Z</time>
      </trkpt>
      <trkpt lat="42.978296" lon="0.082859">
        <ele>1930.9</ele>
        <time>2013-01-06T07:13:50Z</time>
      </trkpt>
      <trkpt lat="42.978304" lon="0.082745">
        <ele>1928.1</ele>
        <time>2013-01-06T07:14:07Z</time>
      </trkpt>
      <trkpt lat="42.978310" lon="0.082623">
        <ele>1927.1</ele>
        <time>2013-01-06T07:14:25Z</time>
      </trkpt>
      <trkpt lat="42.978343" lon="0.082516">
        <ele>1925.7</ele>
        <time>2013-01-06T07:14:44Z</time>
      </trkpt>
      <trkpt lat="42.978346" lon="0.082402">
        <ele>1921.8</ele>
        <time>2013-01-06T07:15:49Z</time>
      </trkpt>
      <trkpt lat="42.978359" lon="0.082288">
        <ele>1921.3</ele>
        <time>2013-01-06T07:16:05Z</time>
      </trkpt>
      <trkpt lat="42.978368" lon="0.082156">
        <ele>1919.4</ele>
        <time>2013-01-06T07:16:23Z</time>
      </trkpt>
      <trkpt lat="42.978374" lon="0.082055">
        <ele>1918.9</ele>
        <time>2013-01-06T07:17:21Z</time>
      </trkpt>
      <trkpt lat="42.978378" lon="0.081942">
        <ele>1919.4</ele>
        <time>2013-01-06T07:17:44Z</time>
      </trkpt>
      <trkpt lat="42.978386" lon="0.081813">
        <ele>1920.4</ele>
        <time>2013-01-06T07:18:02Z</time>
      </trkpt>
      <trkpt lat="42.978414" lon="0.081708">
        <ele>1923.7</ele>
        <time>2013-01-06T07:18:35Z</time>
      </trkpt>
      <trkpt lat="42.978431" lon="0.081587">
        <ele>1924.7</ele>
        <time>2013-01-06T07:18:58Z</time>
      </trkpt>
      <trkpt lat="42.978461" lon="0.081465">
        <ele>1926.1</ele>
        <time>2013-01-06T07:19:15Z</time>
      </trkpt>
      <trkpt lat="42.978463" lon="0.081389">
        <ele>1925.2</ele>
        <time>2013-01-06T07:20:41Z</time>
      </trkpt>
      <trkpt lat="42.978465" lon="0.081265">
        <ele>1924.7</ele>
        <time>2013-01-06T07:20:55Z</time>
      </trkpt>
      <trkpt lat="42.978445" lon="0.081151">
        <ele>1923.7</ele>
        <time>2013-01-06T07:21:07Z</time>
      </trkpt>
      <trkpt lat="42.978471" lon="0.081085">
        <ele>1925.7</ele>
        <time>2013-01-06T07:23:35Z</time>
      </trkpt>
      <trkpt lat="42.978477" lon="0.080966">
        <ele>1929.5</ele>
        <time>2013-01-06T07:26:31Z</time>
      </trkpt>
      <trkpt lat="42.978406" lon="0.080964">
        <ele>1935.8</ele>
        <time>2013-01-06T07:30:53Z</time>
      </trkpt>
      <trkpt lat="42.978426" lon="0.080906">
        <ele>1940.1</ele>
        <time>2013-01-06T07:32:19Z</time>
      </trkpt>
      <trkpt lat="42.978440" lon="0.080874">
        <ele>1941.5</ele>
        <time>2013-01-06T07:35:24Z</time>
      </trkpt>
      <trkpt lat="42.978451" lon="0.080850">
        <ele>1939.6</ele>
        <time>2013-01-06T07:45:30Z</time>
      </trkpt>
      <trkpt lat="42.978453" lon="0.080779">
        <ele>1938.2</ele>
        <time>2013-01-06T07:46:59Z</time>
      </trkpt>
      <trkpt lat="42.978470" lon="0.080697">
        <ele>1937.7</ele>
        <time>2013-01-06T07:47:25Z</time>
      </trkpt>
      <trkpt lat="42.978515" lon="0.080597">
        <ele>1939.6</ele>
        <time>2013-01-06T07:47:52Z</time>
      </trkpt>
      <trkpt lat="42.978522" lon="0.080478">
        <ele>1940.1</ele>
        <time>2013-01-06T07:48:34Z</time>
      </trkpt>
      <trkpt lat="42.978537" lon="0.080378">
        <ele>1940.1</ele>
        <time>2013-01-06T07:52:07Z</time>
      </trkpt>
      <trkpt lat="42.978513" lon="0.080236">
        <ele>1946.3</ele>
        <time>2013-01-06T07:53:39Z</time>
      </trkpt>
      <trkpt lat="42.978475" lon="0.080142">
        <ele>1953.5</ele>
        <time>2013-01-06T07:59:54Z</time>
      </trkpt>
      <trkpt lat="42.978430" lon="0.080076">
        <ele>1958.8</ele>
        <time>2013-01-06T08:04:30Z</time>
      </trkpt>
      <trkpt lat="42.978429" lon="0.080011">
        <ele>1964.6</ele>
        <time>2013-01-06T08:11:22Z</time>
      </trkpt>
      <trkpt lat="42.978422" lon="0.079952">
        <ele>1970.4</ele>
        <time>2013-01-06T08:13:18Z</time>
      </trkpt>
      <trkpt lat="42.978436" lon="0.079880">
        <ele>1973.2</ele>
        <time>2013-01-06T08:17:25Z</time>
      </trkpt>
      <trkpt lat="42.978459" lon="0.079782">
        <ele>1976.1</ele>
        <time>2013-01-06T08:20:17Z</time>
      </trkpt>
      <trkpt lat="42.978503" lon="0.079700">
        <ele>1980.0</ele>
        <time>2013-01-06T08:22:15Z</time>
      </trkpt>
      <trkpt lat="42.978521" lon="0.079603">
        <ele>1983.8</ele>
        <time>2013-01-06T08:23:17Z</time>
      </trkpt>
      <trkpt lat="42.978543" lon="0.079507">
        <ele>1988.1</ele>
        <time>2013-01-06T08:24:43Z</time>
      </trkpt>
      <trkpt lat="42.978550" lon="0.079424">
        <ele>1992.5</ele>
        <time>2013-01-06T08:26:58Z</time>
      </trkpt>
      <trkpt lat="42.978569" lon="0.079300">
        <ele>1993.9</ele>
        <time>2013-01-06T08:27:34Z</time>
      </trkpt>
      <trkpt lat="42.978579" lon="0.079220">
        <ele>1998.2</ele>
        <time>2013-01-06T08:30:18Z</time>
      </trkpt>
      <trkpt lat="42.978589" lon="0.079154">
        <ele>2004.0</ele>
        <time>2013-01-06T08:33:07Z</time>
      </trkpt>
      <trkpt lat="42.978609" lon="0.079046">
        <ele>2014.1</ele>
        <time>2013-01-06T08:38:40Z</time>
      </trkpt>
      <trkpt lat="42.978650" lon="0.078927">
        <ele>2020.3</ele>
        <time>2013-01-06T08:40:06Z</time>
      </trkpt>
      <trkpt lat="42.978642" lon="0.078893">
        <ele>2023.2</ele>
        <time>2013-01-06T08:42:22Z</time>
      </trkpt>
      <trkpt lat="42.978665" lon="0.078798">
        <ele>2024.7</ele>
        <time>2013-01-06T08:43:12Z</time>
      </trkpt>
      <trkpt lat="42.978678" lon="0.078722">
        <ele>2028.0</ele>
        <time>2013-01-06T08:45:10Z</time>
      </trkpt>
      <trkpt lat="42.978694" lon="0.078649">
        <ele>2029.0</ele>
        <time>2013-01-06T08:46:32Z</time>
      </trkpt>
      <trkpt lat="42.978701" lon="0.078539">
        <ele>2030.9</ele>
        <time>2013-01-06T08:47:14Z</time>
      </trkpt>
      <trkpt lat="42.978759" lon="0.078452">
        <ele>2033.8</ele>
        <time>2013-01-06T08:48:00Z</time>
      </trkpt>
      <trkpt lat="42.978749" lon="0.078453">
        <ele>2033.3</ele>
        <time>2013-01-06T08:58:30Z</time>
      </trkpt>
      <trkpt lat="42.978742" lon="0.078437">
        <ele>2034.3</ele>
        <time>2013-01-06T09:16:44Z</time>
      </trkpt>
      <trkpt lat="42.978755" lon="0.078395">
        <ele>2038.1</ele>
        <time>2013-01-06T09:24:55Z</time>
      </trkpt>
      <trkpt lat="42.978787" lon="0.078295">
        <ele>2038.6</ele>
        <time>2013-01-06T09:25:29Z</time>
      </trkpt>
      <trkpt lat="42.978852" lon="0.078214">
        <ele>2040.5</ele>
        <time>2013-01-06T09:28:32Z</time>
      </trkpt>
      <trkpt lat="42.978896" lon="0.078106">
        <ele>2039.1</ele>
        <time>2013-01-06T09:28:52Z</time>
      </trkpt>
      <trkpt lat="42.978941" lon="0.077972">
        <ele>2041.5</ele>
        <time>2013-01-06T09:29:12Z</time>
      </trkpt>
      <trkpt lat="42.978991" lon="0.077890">
        <ele>2042.5</ele>
        <time>2013-01-06T09:29:28Z</time>
      </trkpt>
      <trkpt lat="42.979062" lon="0.077818">
        <ele>2042.9</ele>
        <time>2013-01-06T09:29:46Z</time>
      </trkpt>
      <trkpt lat="42.979128" lon="0.077728">
        <ele>2042.9</ele>
        <time>2013-01-06T09:30:06Z</time>
      </trkpt>
      <trkpt lat="42.979172" lon="0.077610">
        <ele>2041.0</ele>
        <time>2013-01-06T09:31:08Z</time>
      </trkpt>
      <trkpt lat="42.979221" lon="0.077511">
        <ele>2037.2</ele>
        <time>2013-01-06T09:31:22Z</time>
      </trkpt>
      <trkpt lat="42.979278" lon="0.077415">
        <ele>2034.3</ele>
        <time>2013-01-06T09:31:36Z</time>
      </trkpt>
      <trkpt lat="42.979341" lon="0.077325">
        <ele>2032.4</ele>
        <time>2013-01-06T09:31:50Z</time>
      </trkpt>
      <trkpt lat="42.979411" lon="0.077223">
        <ele>2030.9</ele>
        <time>2013-01-06T09:32:10Z</time>
      </trkpt>
      <trkpt lat="42.979480" lon="0.077137">
        <ele>2030.9</ele>
        <time>2013-01-06T09:32:33Z</time>
      </trkpt>
      <trkpt lat="42.979562" lon="0.077048">
        <ele>2029.5</ele>
        <time>2013-01-06T09:32:52Z</time>
      </trkpt>
      <trkpt lat="42.979634" lon="0.076950">
        <ele>2027.6</ele>
        <time>2013-01-06T09:33:14Z</time>
      </trkpt>
      <trkpt lat="42.979703" lon="0.076840">
        <ele>2026.1</ele>
        <time>2013-01-06T09:33:31Z</time>
      </trkpt>
      <trkpt lat="42.979773" lon="0.076746">
        <ele>2024.2</ele>
        <time>2013-01-06T09:33:48Z</time>
      </trkpt>
      <trkpt lat="42.979822" lon="0.076645">
        <ele>2023.2</ele>
        <time>2013-01-06T09:34:02Z</time>
      </trkpt>
      <trkpt lat="42.979891" lon="0.076557">
        <ele>2022.8</ele>
        <time>2013-01-06T09:34:23Z</time>
      </trkpt>
      <trkpt lat="42.979955" lon="0.076491">
        <ele>2022.8</ele>
        <time>2013-01-06T09:34:38Z</time>
      </trkpt>
      <trkpt lat="42.980004" lon="0.076389">
        <ele>2025.6</ele>
        <time>2013-01-06T09:35:00Z</time>
      </trkpt>
      <trkpt lat="42.980014" lon="0.076255">
        <ele>2031.9</ele>
        <time>2013-01-06T09:35:34Z</time>
      </trkpt>
      <trkpt lat="42.980042" lon="0.076145">
        <ele>2037.2</ele>
        <time>2013-01-06T09:36:09Z</time>
      </trkpt>
      <trkpt lat="42.980088" lon="0.076018">
        <ele>2042.5</ele>
        <time>2013-01-06T09:37:17Z</time>
      </trkpt>
      <trkpt lat="42.980145" lon="0.075900">
        <ele>2049.7</ele>
        <time>2013-01-06T09:38:16Z</time>
      </trkpt>
      <trkpt lat="42.980171" lon="0.075855">
        <ele>2054.5</ele>
        <time>2013-01-06T09:39:11Z</time>
      </trkpt>
      <trkpt lat="42.980198" lon="0.075804">
        <ele>2059.3</ele>
        <time>2013-01-06T09:40:09Z</time>
      </trkpt>
      <trkpt lat="42.980244" lon="0.075747">
        <ele>2065.5</ele>
        <time>2013-01-06T09:40:52Z</time>
      </trkpt>
      <trkpt lat="42.980280" lon="0.075654">
        <ele>2071.3</ele>
        <time>2013-01-06T09:41:31Z</time>
      </trkpt>
      <trkpt lat="42.980347" lon="0.075569">
        <ele>2075.6</ele>
        <time>2013-01-06T09:42:13Z</time>
      </trkpt>
      <trkpt lat="42.980406" lon="0.075485">
        <ele>2081.4</ele>
        <time>2013-01-06T09:44:20Z</time>
      </trkpt>
      <trkpt lat="42.980474" lon="0.075397">
        <ele>2087.2</ele>
        <time>2013-01-06T09:44:51Z</time>
      </trkpt>
      <trkpt lat="42.980523" lon="0.075288">
        <ele>2091.0</ele>
        <time>2013-01-06T09:45:18Z</time>
      </trkpt>
      <trkpt lat="42.980594" lon="0.075159">
        <ele>2096.8</ele>
        <time>2013-01-06T09:45:56Z</time>
      </trkpt>
      <trkpt lat="42.980671" lon="0.075052">
        <ele>2100.6</ele>
        <time>2013-01-06T09:46:23Z</time>
      </trkpt>
      <trkpt lat="42.980687" lon="0.074950">
        <ele>2100.1</ele>
        <time>2013-01-06T09:47:28Z</time>
      </trkpt>
      <trkpt lat="42.980733" lon="0.074796">
        <ele>2101.6</ele>
        <time>2013-01-06T09:48:28Z</time>
      </trkpt>
      <trkpt lat="42.980769" lon="0.074673">
        <ele>2102.5</ele>
        <time>2013-01-06T09:48:54Z</time>
      </trkpt>
      <trkpt lat="42.980804" lon="0.074563">
        <ele>2102.1</ele>
        <time>2013-01-06T09:49:12Z</time>
      </trkpt>
      <trkpt lat="42.980859" lon="0.074465">
        <ele>2101.6</ele>
        <time>2013-01-06T09:49:39Z</time>
      </trkpt>
      <trkpt lat="42.980905" lon="0.074342">
        <ele>2105.9</ele>
        <time>2013-01-06T09:50:27Z</time>
      </trkpt>
      <trkpt lat="42.980942" lon="0.074249">
        <ele>2109.3</ele>
        <time>2013-01-06T09:51:14Z</time>
      </trkpt>
      <trkpt lat="42.980984" lon="0.074140">
        <ele>2113.6</ele>
        <time>2013-01-06T09:52:19Z</time>
      </trkpt>
      <trkpt lat="42.981022" lon="0.074035">
        <ele>2117.0</ele>
        <time>2013-01-06T09:53:11Z</time>
      </trkpt>
      <trkpt lat="42.981016" lon="0.073984">
        <ele>2118.4</ele>
        <time>2013-01-06T09:58:45Z</time>
      </trkpt>
      <trkpt lat="42.981033" lon="0.073902">
        <ele>2123.2</ele>
        <time>2013-01-06T10:02:23Z</time>
      </trkpt>
      <trkpt lat="42.981056" lon="0.073812">
        <ele>2128.0</ele>
        <time>2013-01-06T10:04:07Z</time>
      </trkpt>
      <trkpt lat="42.981080" lon="0.073733">
        <ele>2130.9</ele>
        <time>2013-01-06T10:05:11Z</time>
      </trkpt>
      <trkpt lat="42.981091" lon="0.073624">
        <ele>2123.7</ele>
        <time>2013-01-06T10:05:53Z</time>
      </trkpt>
      <trkpt lat="42.981093" lon="0.073587">
        <ele>2121.3</ele>
        <time>2013-01-06T10:06:55Z</time>
      </trkpt>
      <trkpt lat="42.981107" lon="0.073518">
        <ele>2119.8</ele>
        <time>2013-01-06T10:09:14Z</time>
      </trkpt>
      <trkpt lat="42.981097" lon="0.073542">
        <ele>2120.3</ele>
        <time>2013-01-06T10:11:07Z</time>
      </trkpt>
      <trkpt lat="42.981103" lon="0.073554">
        <ele>2119.8</ele>
        <time>2013-01-06T10:17:01Z</time>
      </trkpt>
      <trkpt lat="42.981126" lon="0.073508">
        <ele>2123.2</ele>
        <time>2013-01-06T10:18:59Z</time>
      </trkpt>
      <trkpt lat="42.981163" lon="0.073411">
        <ele>2128.5</ele>
        <time>2013-01-06T10:20:26Z</time>
      </trkpt>
      <trkpt lat="42.981207" lon="0.073279">
        <ele>2130.4</ele>
        <time>2013-01-06T10:20:57Z</time>
      </trkpt>
      <trkpt lat="42.981241" lon="0.073185">
        <ele>2132.3</ele>
        <time>2013-01-06T10:21:27Z</time>
      </trkpt>
      <trkpt lat="42.981304" lon="0.073047">
        <ele>2133.8</ele>
        <time>2013-01-06T10:22:15Z</time>
      </trkpt>
      <trkpt lat="42.981357" lon="0.072941">
        <ele>2135.2</ele>
        <time>2013-01-06T10:23:21Z</time>
      </trkpt>
      <trkpt lat="42.981396" lon="0.072841">
        <ele>2137.1</ele>
        <time>2013-01-06T10:24:36Z</time>
      </trkpt>
      <trkpt lat="42.981446" lon="0.072726">
        <ele>2141.0</ele>
        <time>2013-01-06T10:26:01Z</time>
      </trkpt>
      <trkpt lat="42.981512" lon="0.072644">
        <ele>2142.4</ele>
        <time>2013-01-06T10:28:03Z</time>
        <name>Collet 2140m</name>
      </trkpt>
      <trkpt lat="42.981529" lon="0.072629">
        <ele>2141.5</ele>
        <time>2013-01-06T10:35:49Z</time>
      </trkpt>
      <trkpt lat="42.981523" lon="0.072630">
        <ele>2141.5</ele>
        <time>2013-01-06T10:44:04Z</time>
      </trkpt>
      <trkpt lat="42.981500" lon="0.072565">
        <ele>2139.6</ele>
        <time>2013-01-06T10:51:22Z</time>
      </trkpt>
      <trkpt lat="42.981417" lon="0.072519">
        <ele>2135.2</ele>
        <time>2013-01-06T10:52:08Z</time>
      </trkpt>
      <trkpt lat="42.981331" lon="0.072516">
        <ele>2128.0</ele>
        <time>2013-01-06T10:52:36Z</time>
      </trkpt>
      <trkpt lat="42.981241" lon="0.072622">
        <ele>2121.8</ele>
        <time>2013-01-06T10:53:00Z</time>
      </trkpt>
      <trkpt lat="42.981207" lon="0.072631">
        <ele>2113.6</ele>
        <time>2013-01-06T10:53:25Z</time>
      </trkpt>
      <trkpt lat="42.981080" lon="0.072541">
        <ele>2108.8</ele>
        <time>2013-01-06T10:53:35Z</time>
      </trkpt>
      <trkpt lat="42.981020" lon="0.072402">
        <ele>2106.4</ele>
        <time>2013-01-06T10:53:55Z</time>
      </trkpt>
      <trkpt lat="42.980962" lon="0.072287">
        <ele>2104.5</ele>
        <time>2013-01-06T10:54:10Z</time>
      </trkpt>
      <trkpt lat="42.980972" lon="0.072336">
        <ele>2103.5</ele>
        <time>2013-01-06T10:56:49Z</time>
      </trkpt>
      <trkpt lat="42.980983" lon="0.072354">
        <ele>2102.1</ele>
        <time>2013-01-06T11:04:54Z</time>
      </trkpt>
      <trkpt lat="42.981012" lon="0.072313">
        <ele>2100.1</ele>
        <time>2013-01-06T11:07:03Z</time>
      </trkpt>
      <trkpt lat="42.980908" lon="0.072173">
        <ele>2096.3</ele>
        <time>2013-01-06T11:07:18Z</time>
      </trkpt>
      <trkpt lat="42.980872" lon="0.072061">
        <ele>2091.5</ele>
        <time>2013-01-06T11:07:38Z</time>
      </trkpt>
      <trkpt lat="42.980775" lon="0.071966">
        <ele>2085.7</ele>
        <time>2013-01-06T11:07:52Z</time>
      </trkpt>
      <trkpt lat="42.980721" lon="0.071906">
        <ele>2080.4</ele>
        <time>2013-01-06T11:08:10Z</time>
      </trkpt>
      <trkpt lat="42.980664" lon="0.071835">
        <ele>2077.1</ele>
        <time>2013-01-06T11:08:21Z</time>
      </trkpt>
      <trkpt lat="42.980560" lon="0.071789">
        <ele>2074.2</ele>
        <time>2013-01-06T11:08:38Z</time>
      </trkpt>
      <trkpt lat="42.980441" lon="0.071790">
        <ele>2074.7</ele>
        <time>2013-01-06T11:08:54Z</time>
      </trkpt>
      <trkpt lat="42.980344" lon="0.071787">
        <ele>2073.2</ele>
        <time>2013-01-06T11:09:06Z</time>
      </trkpt>
      <trkpt lat="42.980261" lon="0.071812">
        <ele>2070.8</ele>
        <time>2013-01-06T11:09:17Z</time>
      </trkpt>
      <trkpt lat="42.980165" lon="0.071742">
        <ele>2067.9</ele>
        <time>2013-01-06T11:09:32Z</time>
      </trkpt>
      <trkpt lat="42.980114" lon="0.071737">
        <ele>2065.1</ele>
        <time>2013-01-06T11:10:11Z</time>
      </trkpt>
      <trkpt lat="42.979974" lon="0.071868">
        <ele>2055.9</ele>
        <time>2013-01-06T11:11:52Z</time>
      </trkpt>
      <trkpt lat="42.979855" lon="0.071913">
        <ele>2052.1</ele>
        <time>2013-01-06T11:12:06Z</time>
      </trkpt>
      <trkpt lat="42.979728" lon="0.071896">
        <ele>2048.2</ele>
        <time>2013-01-06T11:12:19Z</time>
      </trkpt>
      <trkpt lat="42.979627" lon="0.071865">
        <ele>2044.9</ele>
        <time>2013-01-06T11:12:27Z</time>
      </trkpt>
      <trkpt lat="42.979505" lon="0.071849">
        <ele>2041.0</ele>
        <time>2013-01-06T11:12:38Z</time>
      </trkpt>
      <trkpt lat="42.979391" lon="0.071820">
        <ele>2035.7</ele>
        <time>2013-01-06T11:12:50Z</time>
      </trkpt>
      <trkpt lat="42.979296" lon="0.071804">
        <ele>2031.4</ele>
        <time>2013-01-06T11:13:00Z</time>
      </trkpt>
      <trkpt lat="42.979195" lon="0.071781">
        <ele>2026.1</ele>
        <time>2013-01-06T11:13:13Z</time>
      </trkpt>
      <trkpt lat="42.979073" lon="0.071705">
        <ele>2020.3</ele>
        <time>2013-01-06T11:13:27Z</time>
      </trkpt>
      <trkpt lat="42.978941" lon="0.071603">
        <ele>2016.5</ele>
        <time>2013-01-06T11:13:38Z</time>
      </trkpt>
      <trkpt lat="42.978816" lon="0.071481">
        <ele>2013.1</ele>
        <time>2013-01-06T11:13:51Z</time>
      </trkpt>
      <trkpt lat="42.978745" lon="0.071454">
        <ele>2010.2</ele>
        <time>2013-01-06T11:14:05Z</time>
      </trkpt>
      <trkpt lat="42.978642" lon="0.071416">
        <ele>2006.9</ele>
        <time>2013-01-06T11:14:19Z</time>
      </trkpt>
      <trkpt lat="42.978633" lon="0.071276">
        <ele>2004.5</ele>
        <time>2013-01-06T11:15:19Z</time>
      </trkpt>
      <trkpt lat="42.978513" lon="0.071257">
        <ele>2000.2</ele>
        <time>2013-01-06T11:15:28Z</time>
      </trkpt>
      <trkpt lat="42.978381" lon="0.071255">
        <ele>1995.8</ele>
        <time>2013-01-06T11:15:35Z</time>
      </trkpt>
      <trkpt lat="42.978294" lon="0.071208">
        <ele>1992.0</ele>
        <time>2013-01-06T11:15:42Z</time>
      </trkpt>
      <trkpt lat="42.978204" lon="0.071136">
        <ele>1987.2</ele>
        <time>2013-01-06T11:15:49Z</time>
      </trkpt>
      <trkpt lat="42.978141" lon="0.071034">
        <ele>1983.3</ele>
        <time>2013-01-06T11:15:57Z</time>
      </trkpt>
      <trkpt lat="42.978116" lon="0.070975">
        <ele>1985.7</ele>
        <time>2013-01-06T11:19:13Z</time>
      </trkpt>
      <trkpt lat="42.978177" lon="0.070903">
        <ele>1991.0</ele>
        <time>2013-01-06T11:20:19Z</time>
      </trkpt>
      <trkpt lat="42.978166" lon="0.070799">
        <ele>1996.3</ele>
        <time>2013-01-06T11:21:06Z</time>
      </trkpt>
      <trkpt lat="42.978085" lon="0.070782">
        <ele>1996.3</ele>
        <time>2013-01-06T11:21:24Z</time>
      </trkpt>
      <trkpt lat="42.978004" lon="0.070778">
        <ele>1996.8</ele>
        <time>2013-01-06T11:21:48Z</time>
      </trkpt>
      <trkpt lat="42.977932" lon="0.070782">
        <ele>1998.2</ele>
        <time>2013-01-06T11:22:35Z</time>
      </trkpt>
      <trkpt lat="42.977826" lon="0.070803">
        <ele>1996.3</ele>
        <time>2013-01-06T11:22:49Z</time>
      </trkpt>
      <trkpt lat="42.977746" lon="0.070812">
        <ele>1993.9</ele>
        <time>2013-01-06T11:22:58Z</time>
      </trkpt>
      <trkpt lat="42.977722" lon="0.070795">
        <ele>1993.4</ele>
        <time>2013-01-06T11:26:16Z</time>
      </trkpt>
      <trkpt lat="42.977652" lon="0.070778">
        <ele>1992.5</ele>
        <time>2013-01-06T11:26:58Z</time>
      </trkpt>
      <trkpt lat="42.977567" lon="0.070753">
        <ele>1992.5</ele>
        <time>2013-01-06T11:27:18Z</time>
      </trkpt>
      <trkpt lat="42.977472" lon="0.070752">
        <ele>1994.4</ele>
        <time>2013-01-06T11:27:36Z</time>
      </trkpt>
      <trkpt lat="42.977385" lon="0.070745">
        <ele>1993.4</ele>
        <time>2013-01-06T11:27:57Z</time>
      </trkpt>
      <trkpt lat="42.977300" lon="0.070764">
        <ele>1990.6</ele>
        <time>2013-01-06T11:28:10Z</time>
      </trkpt>
      <trkpt lat="42.977233" lon="0.070786">
        <ele>1984.3</ele>
        <time>2013-01-06T11:28:24Z</time>
      </trkpt>
      <trkpt lat="42.977168" lon="0.070830">
        <ele>1980.4</ele>
        <time>2013-01-06T11:28:40Z</time>
      </trkpt>
      <trkpt lat="42.977079" lon="0.070886">
        <ele>1975.2</ele>
        <time>2013-01-06T11:28:56Z</time>
      </trkpt>
      <trkpt lat="42.976983" lon="0.070932">
        <ele>1970.8</ele>
        <time>2013-01-06T11:29:09Z</time>
      </trkpt>
      <trkpt lat="42.976914" lon="0.070941">
        <ele>1966.5</ele>
        <time>2013-01-06T11:30:05Z</time>
      </trkpt>
      <trkpt lat="42.976830" lon="0.070980">
        <ele>1964.1</ele>
        <time>2013-01-06T11:30:55Z</time>
      </trkpt>
      <trkpt lat="42.976736" lon="0.071038">
        <ele>1964.1</ele>
        <time>2013-01-06T11:31:10Z</time>
      </trkpt>
      <trkpt lat="42.976656" lon="0.071136">
        <ele>1962.7</ele>
        <time>2013-01-06T11:31:31Z</time>
      </trkpt>
      <trkpt lat="42.976596" lon="0.071225">
        <ele>1960.3</ele>
        <time>2013-01-06T11:31:42Z</time>
      </trkpt>
      <trkpt lat="42.976528" lon="0.071304">
        <ele>1958.3</ele>
        <time>2013-01-06T11:32:20Z</time>
      </trkpt>
      <trkpt lat="42.976482" lon="0.071389">
        <ele>1954.0</ele>
        <time>2013-01-06T11:32:32Z</time>
      </trkpt>
      <trkpt lat="42.976455" lon="0.071419">
        <ele>1953.1</ele>
        <time>2013-01-06T11:33:51Z</time>
      </trkpt>
      <trkpt lat="42.976370" lon="0.071486">
        <ele>1952.1</ele>
        <time>2013-01-06T11:34:03Z</time>
      </trkpt>
      <trkpt lat="42.976284" lon="0.071526">
        <ele>1951.6</ele>
        <time>2013-01-06T11:34:18Z</time>
      </trkpt>
      <trkpt lat="42.976190" lon="0.071479">
        <ele>1952.1</ele>
        <time>2013-01-06T11:34:33Z</time>
      </trkpt>
      <trkpt lat="42.976106" lon="0.071457">
        <ele>1951.1</ele>
        <time>2013-01-06T11:34:48Z</time>
      </trkpt>
      <trkpt lat="42.976035" lon="0.071427">
        <ele>1951.1</ele>
        <time>2013-01-06T11:35:05Z</time>
      </trkpt>
      <trkpt lat="42.975973" lon="0.071412">
        <ele>1949.2</ele>
        <time>2013-01-06T11:37:13Z</time>
      </trkpt>
      <trkpt lat="42.975893" lon="0.071394">
        <ele>1947.3</ele>
        <time>2013-01-06T11:37:26Z</time>
      </trkpt>
      <trkpt lat="42.975832" lon="0.071310">
        <ele>1943.9</ele>
        <time>2013-01-06T11:37:38Z</time>
      </trkpt>
      <trkpt lat="42.975779" lon="0.071202">
        <ele>1940.6</ele>
        <time>2013-01-06T11:37:48Z</time>
      </trkpt>
      <trkpt lat="42.975730" lon="0.071100">
        <ele>1937.2</ele>
        <time>2013-01-06T11:37:58Z</time>
      </trkpt>
      <trkpt lat="42.975678" lon="0.070973">
        <ele>1933.8</ele>
        <time>2013-01-06T11:38:12Z</time>
      </trkpt>
      <trkpt lat="42.975644" lon="0.070863">
        <ele>1936.2</ele>
        <time>2013-01-06T11:38:32Z</time>
      </trkpt>
      <trkpt lat="42.975592" lon="0.070784">
        <ele>1935.3</ele>
        <time>2013-01-06T11:38:47Z</time>
      </trkpt>
      <trkpt lat="42.975526" lon="0.070717">
        <ele>1932.9</ele>
        <time>2013-01-06T11:39:12Z</time>
      </trkpt>
      <trkpt lat="42.975435" lon="0.070734">
        <ele>1930.5</ele>
        <time>2013-01-06T11:39:23Z</time>
      </trkpt>
      <trkpt lat="42.975350" lon="0.070731">
        <ele>1927.1</ele>
        <time>2013-01-06T11:39:34Z</time>
      </trkpt>
      <trkpt lat="42.975247" lon="0.070709">
        <ele>1923.2</ele>
        <time>2013-01-06T11:39:45Z</time>
      </trkpt>
      <trkpt lat="42.975153" lon="0.070697">
        <ele>1920.4</ele>
        <time>2013-01-06T11:39:56Z</time>
      </trkpt>
      <trkpt lat="42.975066" lon="0.070724">
        <ele>1917.0</ele>
        <time>2013-01-06T11:40:07Z</time>
      </trkpt>
      <trkpt lat="42.974965" lon="0.070768">
        <ele>1913.2</ele>
        <time>2013-01-06T11:40:21Z</time>
      </trkpt>
      <trkpt lat="42.974878" lon="0.070852">
        <ele>1909.3</ele>
        <time>2013-01-06T11:40:32Z</time>
      </trkpt>
      <trkpt lat="42.974778" lon="0.070876">
        <ele>1905.9</ele>
        <time>2013-01-06T11:40:42Z</time>
      </trkpt>
      <trkpt lat="42.974711" lon="0.070886">
        <ele>1904.0</ele>
        <time>2013-01-06T11:40:55Z</time>
      </trkpt>
      <trkpt lat="42.974636" lon="0.070938">
        <ele>1905.5</ele>
        <time>2013-01-06T11:41:11Z</time>
      </trkpt>
      <trkpt lat="42.974545" lon="0.070955">
        <ele>1903.1</ele>
        <time>2013-01-06T11:42:09Z</time>
      </trkpt>
      <trkpt lat="42.974511" lon="0.071035">
        <ele>1900.7</ele>
        <time>2013-01-06T11:42:30Z</time>
      </trkpt>
      <trkpt lat="42.974429" lon="0.071135">
        <ele>1897.3</ele>
        <time>2013-01-06T11:43:08Z</time>
      </trkpt>
      <trkpt lat="42.974337" lon="0.071163">
        <ele>1893.0</ele>
        <time>2013-01-06T11:43:19Z</time>
      </trkpt>
      <trkpt lat="42.974248" lon="0.071192">
        <ele>1890.1</ele>
        <time>2013-01-06T11:43:29Z</time>
      </trkpt>
      <trkpt lat="42.974156" lon="0.071233">
        <ele>1886.7</ele>
        <time>2013-01-06T11:43:40Z</time>
      </trkpt>
      <trkpt lat="42.974063" lon="0.071262">
        <ele>1882.4</ele>
        <time>2013-01-06T11:43:51Z</time>
      </trkpt>
      <trkpt lat="42.973964" lon="0.071262">
        <ele>1877.6</ele>
        <time>2013-01-06T11:44:01Z</time>
      </trkpt>
      <trkpt lat="42.973869" lon="0.071279">
        <ele>1874.2</ele>
        <time>2013-01-06T11:44:11Z</time>
      </trkpt>
      <trkpt lat="42.973770" lon="0.071308">
        <ele>1870.4</ele>
        <time>2013-01-06T11:44:21Z</time>
      </trkpt>
      <trkpt lat="42.973672" lon="0.071279">
        <ele>1868.5</ele>
        <time>2013-01-06T11:44:31Z</time>
      </trkpt>
      <trkpt lat="42.973573" lon="0.071270">
        <ele>1865.6</ele>
        <time>2013-01-06T11:44:42Z</time>
      </trkpt>
      <trkpt lat="42.973486" lon="0.071241">
        <ele>1863.2</ele>
        <time>2013-01-06T11:44:52Z</time>
      </trkpt>
      <trkpt lat="42.973388" lon="0.071232">
        <ele>1861.2</ele>
        <time>2013-01-06T11:45:04Z</time>
      </trkpt>
      <trkpt lat="42.973338" lon="0.071232">
        <ele>1857.9</ele>
        <time>2013-01-06T11:45:43Z</time>
      </trkpt>
      <trkpt lat="42.973249" lon="0.071153">
        <ele>1854.0</ele>
        <time>2013-01-06T11:45:56Z</time>
      </trkpt>
      <trkpt lat="42.973188" lon="0.071053">
        <ele>1852.1</ele>
        <time>2013-01-06T11:46:07Z</time>
      </trkpt>
      <trkpt lat="42.973139" lon="0.070947">
        <ele>1849.7</ele>
        <time>2013-01-06T11:46:16Z</time>
      </trkpt>
      <trkpt lat="42.973105" lon="0.070830">
        <ele>1846.8</ele>
        <time>2013-01-06T11:46:26Z</time>
      </trkpt>
      <trkpt lat="42.973036" lon="0.070738">
        <ele>1843.9</ele>
        <time>2013-01-06T11:46:36Z</time>
      </trkpt>
      <trkpt lat="42.972958" lon="0.070651">
        <ele>1840.6</ele>
        <time>2013-01-06T11:46:46Z</time>
      </trkpt>
      <trkpt lat="42.972875" lon="0.070575">
        <ele>1838.2</ele>
        <time>2013-01-06T11:46:57Z</time>
      </trkpt>
      <trkpt lat="42.972789" lon="0.070514">
        <ele>1835.8</ele>
        <time>2013-01-06T11:47:19Z</time>
      </trkpt>
      <trkpt lat="42.972700" lon="0.070495">
        <ele>1833.8</ele>
        <time>2013-01-06T11:47:33Z</time>
      </trkpt>
      <trkpt lat="42.972613" lon="0.070465">
        <ele>1831.4</ele>
        <time>2013-01-06T11:47:46Z</time>
      </trkpt>
      <trkpt lat="42.972528" lon="0.070462">
        <ele>1828.6</ele>
        <time>2013-01-06T11:47:57Z</time>
      </trkpt>
      <trkpt lat="42.972440" lon="0.070438">
        <ele>1825.2</ele>
        <time>2013-01-06T11:48:07Z</time>
      </trkpt>
      <trkpt lat="42.972356" lon="0.070404">
        <ele>1822.8</ele>
        <time>2013-01-06T11:48:17Z</time>
      </trkpt>
      <trkpt lat="42.972284" lon="0.070335">
        <ele>1821.3</ele>
        <time>2013-01-06T11:48:26Z</time>
      </trkpt>
      <trkpt lat="42.972183" lon="0.070309">
        <ele>1818.5</ele>
        <time>2013-01-06T11:48:37Z</time>
      </trkpt>
      <trkpt lat="42.972089" lon="0.070345">
        <ele>1815.1</ele>
        <time>2013-01-06T11:48:47Z</time>
      </trkpt>
      <trkpt lat="42.972005" lon="0.070399">
        <ele>1812.7</ele>
        <time>2013-01-06T11:48:58Z</time>
      </trkpt>
      <trkpt lat="42.971937" lon="0.070483">
        <ele>1810.3</ele>
        <time>2013-01-06T11:49:10Z</time>
      </trkpt>
      <trkpt lat="42.971882" lon="0.070596">
        <ele>1808.9</ele>
        <time>2013-01-06T11:49:20Z</time>
      </trkpt>
      <trkpt lat="42.971839" lon="0.070700">
        <ele>1806.9</ele>
        <time>2013-01-06T11:49:30Z</time>
      </trkpt>
      <trkpt lat="42.971796" lon="0.070806">
        <ele>1805.0</ele>
        <time>2013-01-06T11:49:40Z</time>
      </trkpt>
      <trkpt lat="42.971749" lon="0.070932">
        <ele>1803.6</ele>
        <time>2013-01-06T11:49:51Z</time>
      </trkpt>
      <trkpt lat="42.971710" lon="0.071037">
        <ele>1801.7</ele>
        <time>2013-01-06T11:50:01Z</time>
      </trkpt>
      <trkpt lat="42.971669" lon="0.071163">
        <ele>1799.2</ele>
        <time>2013-01-06T11:50:13Z</time>
      </trkpt>
      <trkpt lat="42.971628" lon="0.071283">
        <ele>1797.3</ele>
        <time>2013-01-06T11:50:25Z</time>
      </trkpt>
      <trkpt lat="42.971576" lon="0.071394">
        <ele>1795.9</ele>
        <time>2013-01-06T11:50:39Z</time>
      </trkpt>
      <trkpt lat="42.971527" lon="0.071510">
        <ele>1794.9</ele>
        <time>2013-01-06T11:50:52Z</time>
      </trkpt>
      <trkpt lat="42.971455" lon="0.071596">
        <ele>1793.5</ele>
        <time>2013-01-06T11:51:03Z</time>
      </trkpt>
      <trkpt lat="42.971402" lon="0.071654">
        <ele>1791.6</ele>
        <time>2013-01-06T11:51:16Z</time>
      </trkpt>
      <trkpt lat="42.971314" lon="0.071716">
        <ele>1788.2</ele>
        <time>2013-01-06T11:51:26Z</time>
      </trkpt>
      <trkpt lat="42.971238" lon="0.071774">
        <ele>1784.3</ele>
        <time>2013-01-06T11:51:37Z</time>
      </trkpt>
      <trkpt lat="42.971162" lon="0.071827">
        <ele>1780.5</ele>
        <time>2013-01-06T11:51:47Z</time>
      </trkpt>
      <trkpt lat="42.971117" lon="0.071911">
        <ele>1777.6</ele>
        <time>2013-01-06T11:51:57Z</time>
      </trkpt>
      <trkpt lat="42.971077" lon="0.072026">
        <ele>1775.2</ele>
        <time>2013-01-06T11:52:09Z</time>
      </trkpt>
      <trkpt lat="42.971038" lon="0.072144">
        <ele>1773.8</ele>
        <time>2013-01-06T11:52:21Z</time>
      </trkpt>
      <trkpt lat="42.971007" lon="0.072267">
        <ele>1772.3</ele>
        <time>2013-01-06T11:52:32Z</time>
      </trkpt>
      <trkpt lat="42.970956" lon="0.072377">
        <ele>1770.4</ele>
        <time>2013-01-06T11:52:43Z</time>
      </trkpt>
      <trkpt lat="42.970888" lon="0.072474">
        <ele>1769.4</ele>
        <time>2013-01-06T11:52:56Z</time>
      </trkpt>
      <trkpt lat="42.970842" lon="0.072581">
        <ele>1767.5</ele>
        <time>2013-01-06T11:53:21Z</time>
      </trkpt>
      <trkpt lat="42.970793" lon="0.072655">
        <ele>1766.6</ele>
        <time>2013-01-06T11:56:28Z</time>
      </trkpt>
      <trkpt lat="42.970767" lon="0.072757">
        <ele>1764.2</ele>
        <time>2013-01-06T11:56:43Z</time>
      </trkpt>
      <trkpt lat="42.970742" lon="0.072861">
        <ele>1763.7</ele>
        <time>2013-01-06T11:57:02Z</time>
      </trkpt>
      <trkpt lat="42.970696" lon="0.072988">
        <ele>1761.8</ele>
        <time>2013-01-06T11:57:13Z</time>
      </trkpt>
      <trkpt lat="42.970707" lon="0.073105">
        <ele>1759.3</ele>
        <time>2013-01-06T11:57:23Z</time>
      </trkpt>
      <trkpt lat="42.970691" lon="0.073234">
        <ele>1756.5</ele>
        <time>2013-01-06T11:57:33Z</time>
      </trkpt>
      <trkpt lat="42.970666" lon="0.073342">
        <ele>1754.1</ele>
        <time>2013-01-06T11:57:43Z</time>
      </trkpt>
      <trkpt lat="42.970643" lon="0.073482">
        <ele>1752.1</ele>
        <time>2013-01-06T11:57:54Z</time>
      </trkpt>
      <trkpt lat="42.970599" lon="0.073593">
        <ele>1749.7</ele>
        <time>2013-01-06T11:58:05Z</time>
      </trkpt>
      <trkpt lat="42.970579" lon="0.073726">
        <ele>1746.4</ele>
        <time>2013-01-06T11:58:16Z</time>
      </trkpt>
      <trkpt lat="42.970589" lon="0.073826">
        <ele>1742.5</ele>
        <time>2013-01-06T11:58:27Z</time>
      </trkpt>
      <trkpt lat="42.970581" lon="0.073941">
        <ele>1738.2</ele>
        <time>2013-01-06T11:58:55Z</time>
      </trkpt>
      <trkpt lat="42.970483" lon="0.074023">
        <ele>1734.4</ele>
        <time>2013-01-06T11:59:05Z</time>
      </trkpt>
      <trkpt lat="42.970410" lon="0.074081">
        <ele>1730.0</ele>
        <time>2013-01-06T11:59:16Z</time>
      </trkpt>
      <trkpt lat="42.970357" lon="0.074224">
        <ele>1726.2</ele>
        <time>2013-01-06T11:59:36Z</time>
      </trkpt>
      <trkpt lat="42.970301" lon="0.074326">
        <ele>1721.9</ele>
        <time>2013-01-06T11:59:48Z</time>
      </trkpt>
      <trkpt lat="42.970235" lon="0.074398">
        <ele>1719.5</ele>
        <time>2013-01-06T12:00:00Z</time>
      </trkpt>
      <trkpt lat="42.970164" lon="0.074455">
        <ele>1716.1</ele>
        <time>2013-01-06T12:00:17Z</time>
      </trkpt>
      <trkpt lat="42.970151" lon="0.074563">
        <ele>1711.8</ele>
        <time>2013-01-06T12:00:39Z</time>
      </trkpt>
      <trkpt lat="42.970190" lon="0.074654">
        <ele>1707.4</ele>
        <time>2013-01-06T12:00:59Z</time>
      </trkpt>
      <trkpt lat="42.970220" lon="0.074744">
        <ele>1703.1</ele>
        <time>2013-01-06T12:01:12Z</time>
      </trkpt>
      <trkpt lat="42.970271" lon="0.074838">
        <ele>1698.8</ele>
        <time>2013-01-06T12:01:25Z</time>
      </trkpt>
      <trkpt lat="42.970315" lon="0.074948">
        <ele>1694.0</ele>
        <time>2013-01-06T12:01:34Z</time>
      </trkpt>
      <trkpt lat="42.970355" lon="0.075079">
        <ele>1690.6</ele>
        <time>2013-01-06T12:01:44Z</time>
      </trkpt>
      <trkpt lat="42.970380" lon="0.075210">
        <ele>1685.8</ele>
        <time>2013-01-06T12:01:54Z</time>
      </trkpt>
      <trkpt lat="42.970414" lon="0.075310">
        <ele>1682.0</ele>
        <time>2013-01-06T12:02:06Z</time>
      </trkpt>
      <trkpt lat="42.970472" lon="0.075403">
        <ele>1682.4</ele>
        <time>2013-01-06T12:02:20Z</time>
      </trkpt>
      <trkpt lat="42.970523" lon="0.075517">
        <ele>1680.0</ele>
        <time>2013-01-06T12:02:30Z</time>
      </trkpt>
      <trkpt lat="42.970586" lon="0.075604">
        <ele>1679.1</ele>
        <time>2013-01-06T12:02:41Z</time>
      </trkpt>
      <trkpt lat="42.970599" lon="0.075723">
        <ele>1675.7</ele>
        <time>2013-01-06T12:02:52Z</time>
      </trkpt>
      <trkpt lat="42.970636" lon="0.075833">
        <ele>1670.4</ele>
        <time>2013-01-06T12:03:04Z</time>
      </trkpt>
      <trkpt lat="42.970663" lon="0.075888">
        <ele>1666.6</ele>
        <time>2013-01-06T12:04:35Z</time>
      </trkpt>
      <trkpt lat="42.970737" lon="0.075984">
        <ele>1663.2</ele>
        <time>2013-01-06T12:04:44Z</time>
      </trkpt>
      <trkpt lat="42.970820" lon="0.076059">
        <ele>1658.9</ele>
        <time>2013-01-06T12:04:54Z</time>
      </trkpt>
      <trkpt lat="42.970896" lon="0.076131">
        <ele>1654.1</ele>
        <time>2013-01-06T12:05:05Z</time>
      </trkpt>
      <trkpt lat="42.970960" lon="0.076226">
        <ele>1647.8</ele>
        <time>2013-01-06T12:05:16Z</time>
      </trkpt>
      <trkpt lat="42.971028" lon="0.076349">
        <ele>1644.9</ele>
        <time>2013-01-06T12:05:30Z</time>
      </trkpt>
      <trkpt lat="42.971193" lon="0.076432">
        <ele>1632.0</ele>
        <time>2013-01-06T13:18:22Z</time>
      </trkpt>
      <trkpt lat="42.971305" lon="0.076467">
        <ele>1634.4</ele>
        <time>2013-01-06T13:18:39Z</time>
      </trkpt>
      <trkpt lat="42.971372" lon="0.076568">
        <ele>1634.4</ele>
        <time>2013-01-06T13:18:50Z</time>
      </trkpt>
      <trkpt lat="42.971434" lon="0.076678">
        <ele>1634.4</ele>
        <time>2013-01-06T13:19:00Z</time>
      </trkpt>
      <trkpt lat="42.971470" lon="0.076809">
        <ele>1633.4</ele>
        <time>2013-01-06T13:19:10Z</time>
      </trkpt>
      <trkpt lat="42.971475" lon="0.076949">
        <ele>1633.9</ele>
        <time>2013-01-06T13:19:21Z</time>
      </trkpt>
      <trkpt lat="42.971473" lon="0.077075">
        <ele>1633.9</ele>
        <time>2013-01-06T13:19:31Z</time>
      </trkpt>
      <trkpt lat="42.971465" lon="0.077205">
        <ele>1633.4</ele>
        <time>2013-01-06T13:19:41Z</time>
      </trkpt>
      <trkpt lat="42.971461" lon="0.077333">
        <ele>1633.4</ele>
        <time>2013-01-06T13:19:49Z</time>
      </trkpt>
      <trkpt lat="42.971498" lon="0.077444">
        <ele>1633.4</ele>
        <time>2013-01-06T13:19:59Z</time>
      </trkpt>
      <trkpt lat="42.971511" lon="0.077553">
        <ele>1630.5</ele>
        <time>2013-01-06T13:20:11Z</time>
      </trkpt>
      <trkpt lat="42.971554" lon="0.077666">
        <ele>1626.7</ele>
        <time>2013-01-06T13:20:24Z</time>
      </trkpt>
      <trkpt lat="42.971632" lon="0.077774">
        <ele>1623.3</ele>
        <time>2013-01-06T13:20:40Z</time>
      </trkpt>
      <trkpt lat="42.971729" lon="0.077828">
        <ele>1621.4</ele>
        <time>2013-01-06T13:20:55Z</time>
      </trkpt>
      <trkpt lat="42.971807" lon="0.077910">
        <ele>1620.0</ele>
        <time>2013-01-06T13:21:10Z</time>
      </trkpt>
      <trkpt lat="42.971902" lon="0.077978">
        <ele>1618.0</ele>
        <time>2013-01-06T13:21:22Z</time>
      </trkpt>
      <trkpt lat="42.971968" lon="0.078075">
        <ele>1617.1</ele>
        <time>2013-01-06T13:21:34Z</time>
      </trkpt>
      <trkpt lat="42.972041" lon="0.078161">
        <ele>1615.6</ele>
        <time>2013-01-06T13:21:45Z</time>
      </trkpt>
      <trkpt lat="42.972135" lon="0.078244">
        <ele>1613.2</ele>
        <time>2013-01-06T13:22:01Z</time>
      </trkpt>
      <trkpt lat="42.972198" lon="0.078336">
        <ele>1610.8</ele>
        <time>2013-01-06T13:22:13Z</time>
      </trkpt>
      <trkpt lat="42.972262" lon="0.078443">
        <ele>1609.4</ele>
        <time>2013-01-06T13:22:23Z</time>
      </trkpt>
      <trkpt lat="42.972322" lon="0.078557">
        <ele>1608.9</ele>
        <time>2013-01-06T13:22:33Z</time>
      </trkpt>
      <trkpt lat="42.972369" lon="0.078676">
        <ele>1607.0</ele>
        <time>2013-01-06T13:22:44Z</time>
      </trkpt>
      <trkpt lat="42.972429" lon="0.078784">
        <ele>1605.5</ele>
        <time>2013-01-06T13:22:55Z</time>
      </trkpt>
      <trkpt lat="42.972483" lon="0.078893">
        <ele>1603.6</ele>
        <time>2013-01-06T13:23:06Z</time>
      </trkpt>
      <trkpt lat="42.972490" lon="0.079028">
        <ele>1602.2</ele>
        <time>2013-01-06T13:23:17Z</time>
      </trkpt>
      <trkpt lat="42.972478" lon="0.079170">
        <ele>1601.7</ele>
        <time>2013-01-06T13:23:28Z</time>
      </trkpt>
      <trkpt lat="42.972477" lon="0.079303">
        <ele>1600.2</ele>
        <time>2013-01-06T13:23:38Z</time>
      </trkpt>
      <trkpt lat="42.972489" lon="0.079440">
        <ele>1596.4</ele>
        <time>2013-01-06T13:23:50Z</time>
      </trkpt>
      <trkpt lat="42.972477" lon="0.079570">
        <ele>1592.6</ele>
        <time>2013-01-06T13:24:03Z</time>
      </trkpt>
      <trkpt lat="42.972458" lon="0.079677">
        <ele>1588.7</ele>
        <time>2013-01-06T13:24:21Z</time>
      </trkpt>
      <trkpt lat="42.972470" lon="0.079780">
        <ele>1585.3</ele>
        <time>2013-01-06T13:24:35Z</time>
      </trkpt>
      <trkpt lat="42.972510" lon="0.079872">
        <ele>1582.5</ele>
        <time>2013-01-06T13:24:49Z</time>
      </trkpt>
      <trkpt lat="42.972603" lon="0.079928">
        <ele>1580.5</ele>
        <time>2013-01-06T13:25:01Z</time>
      </trkpt>
      <trkpt lat="42.972623" lon="0.080046">
        <ele>1579.1</ele>
        <time>2013-01-06T13:25:27Z</time>
      </trkpt>
      <trkpt lat="42.972760" lon="0.079931">
        <ele>1574.3</ele>
        <time>2013-01-06T13:26:54Z</time>
      </trkpt>
      <trkpt lat="42.972796" lon="0.080071">
        <ele>1575.7</ele>
        <time>2013-01-06T13:27:25Z</time>
      </trkpt>
      <trkpt lat="42.972825" lon="0.080175">
        <ele>1576.2</ele>
        <time>2013-01-06T13:28:06Z</time>
      </trkpt>
      <trkpt lat="42.972840" lon="0.080299">
        <ele>1574.8</ele>
        <time>2013-01-06T13:28:16Z</time>
      </trkpt>
      <trkpt lat="42.972839" lon="0.080418">
        <ele>1572.4</ele>
        <time>2013-01-06T13:28:28Z</time>
      </trkpt>
      <trkpt lat="42.972907" lon="0.080525">
        <ele>1571.4</ele>
        <time>2013-01-06T13:28:40Z</time>
      </trkpt>
      <trkpt lat="42.972961" lon="0.080634">
        <ele>1569.5</ele>
        <time>2013-01-06T13:28:51Z</time>
      </trkpt>
      <trkpt lat="42.973015" lon="0.080745">
        <ele>1567.6</ele>
        <time>2013-01-06T13:29:02Z</time>
      </trkpt>
      <trkpt lat="42.973007" lon="0.080890">
        <ele>1567.1</ele>
        <time>2013-01-06T13:29:13Z</time>
      </trkpt>
      <trkpt lat="42.973023" lon="0.081030">
        <ele>1566.6</ele>
        <time>2013-01-06T13:29:24Z</time>
      </trkpt>
      <trkpt lat="42.973006" lon="0.081158">
        <ele>1565.2</ele>
        <time>2013-01-06T13:29:37Z</time>
      </trkpt>
      <trkpt lat="42.972968" lon="0.081259">
        <ele>1564.2</ele>
        <time>2013-01-06T13:29:47Z</time>
      </trkpt>
      <trkpt lat="42.972948" lon="0.081384">
        <ele>1562.8</ele>
        <time>2013-01-06T13:29:57Z</time>
      </trkpt>
      <trkpt lat="42.972911" lon="0.081507">
        <ele>1560.4</ele>
        <time>2013-01-06T13:30:07Z</time>
      </trkpt>
      <trkpt lat="42.972878" lon="0.081635">
        <ele>1557.5</ele>
        <time>2013-01-06T13:30:17Z</time>
      </trkpt>
      <trkpt lat="42.972867" lon="0.081756">
        <ele>1556.5</ele>
        <time>2013-01-06T13:30:26Z</time>
      </trkpt>
      <trkpt lat="42.972856" lon="0.081891">
        <ele>1553.6</ele>
        <time>2013-01-06T13:30:37Z</time>
      </trkpt>
      <trkpt lat="42.972811" lon="0.082012">
        <ele>1551.2</ele>
        <time>2013-01-06T13:30:52Z</time>
      </trkpt>
      <trkpt lat="42.972773" lon="0.082132">
        <ele>1549.8</ele>
        <time>2013-01-06T13:31:00Z</time>
      </trkpt>
      <trkpt lat="42.972701" lon="0.082227">
        <ele>1547.4</ele>
        <time>2013-01-06T13:31:10Z</time>
      </trkpt>
      <trkpt lat="42.972642" lon="0.082318">
        <ele>1546.4</ele>
        <time>2013-01-06T13:31:24Z</time>
      </trkpt>
      <trkpt lat="42.972570" lon="0.082404">
        <ele>1545.9</ele>
        <time>2013-01-06T13:31:33Z</time>
      </trkpt>
      <trkpt lat="42.972513" lon="0.082509">
        <ele>1543.5</ele>
        <time>2013-01-06T13:31:42Z</time>
      </trkpt>
      <trkpt lat="42.972451" lon="0.082615">
        <ele>1542.1</ele>
        <time>2013-01-06T13:31:50Z</time>
      </trkpt>
      <trkpt lat="42.972411" lon="0.082710">
        <ele>1541.6</ele>
        <time>2013-01-06T13:31:58Z</time>
      </trkpt>
      <trkpt lat="42.972376" lon="0.082835">
        <ele>1540.2</ele>
        <time>2013-01-06T13:32:07Z</time>
      </trkpt>
      <trkpt lat="42.972333" lon="0.082963">
        <ele>1537.3</ele>
        <time>2013-01-06T13:32:17Z</time>
      </trkpt>
      <trkpt lat="42.972292" lon="0.083080">
        <ele>1535.4</ele>
        <time>2013-01-06T13:32:26Z</time>
      </trkpt>
      <trkpt lat="42.972270" lon="0.083204">
        <ele>1533.0</ele>
        <time>2013-01-06T13:32:35Z</time>
      </trkpt>
      <trkpt lat="42.972208" lon="0.083283">
        <ele>1529.6</ele>
        <time>2013-01-06T13:32:46Z</time>
      </trkpt>
      <trkpt lat="42.972156" lon="0.083383">
        <ele>1527.2</ele>
        <time>2013-01-06T13:32:56Z</time>
      </trkpt>
      <trkpt lat="42.972077" lon="0.083459">
        <ele>1523.8</ele>
        <time>2013-01-06T13:33:07Z</time>
      </trkpt>
      <trkpt lat="42.971970" lon="0.083472">
        <ele>1520.0</ele>
        <time>2013-01-06T13:33:16Z</time>
      </trkpt>
      <trkpt lat="42.971878" lon="0.083494">
        <ele>1516.1</ele>
        <time>2013-01-06T13:33:25Z</time>
      </trkpt>
      <trkpt lat="42.971794" lon="0.083565">
        <ele>1511.8</ele>
        <time>2013-01-06T13:33:36Z</time>
      </trkpt>
      <trkpt lat="42.971726" lon="0.083653">
        <ele>1507.5</ele>
        <time>2013-01-06T13:33:47Z</time>
      </trkpt>
      <trkpt lat="42.971690" lon="0.083778">
        <ele>1505.1</ele>
        <time>2013-01-06T13:33:56Z</time>
      </trkpt>
      <trkpt lat="42.971646" lon="0.083886">
        <ele>1503.2</ele>
        <time>2013-01-06T13:34:04Z</time>
      </trkpt>
      <trkpt lat="42.971588" lon="0.083981">
        <ele>1500.3</ele>
        <time>2013-01-06T13:34:13Z</time>
      </trkpt>
      <trkpt lat="42.971542" lon="0.084036">
        <ele>1499.3</ele>
        <time>2013-01-06T13:39:17Z</time>
      </trkpt>
      <trkpt lat="42.971492" lon="0.084100">
        <ele>1498.8</ele>
        <time>2013-01-06T13:39:27Z</time>
      </trkpt>
      <trkpt lat="42.971401" lon="0.084159">
        <ele>1496.9</ele>
        <time>2013-01-06T13:39:36Z</time>
      </trkpt>
      <trkpt lat="42.971324" lon="0.084237">
        <ele>1494.5</ele>
        <time>2013-01-06T13:39:45Z</time>
      </trkpt>
      <trkpt lat="42.971228" lon="0.084286">
        <ele>1493.1</ele>
        <time>2013-01-06T13:39:54Z</time>
      </trkpt>
      <trkpt lat="42.971124" lon="0.084322">
        <ele>1490.7</ele>
        <time>2013-01-06T13:40:04Z</time>
      </trkpt>
      <trkpt lat="42.971029" lon="0.084373">
        <ele>1489.7</ele>
        <time>2013-01-06T13:40:13Z</time>
      </trkpt>
      <trkpt lat="42.970936" lon="0.084433">
        <ele>1488.7</ele>
        <time>2013-01-06T13:40:21Z</time>
      </trkpt>
      <trkpt lat="42.970844" lon="0.084480">
        <ele>1487.8</ele>
        <time>2013-01-06T13:40:29Z</time>
      </trkpt>
      <trkpt lat="42.970755" lon="0.084539">
        <ele>1487.3</ele>
        <time>2013-01-06T13:40:37Z</time>
      </trkpt>
      <trkpt lat="42.970645" lon="0.084545">
        <ele>1487.3</ele>
        <time>2013-01-06T13:40:47Z</time>
      </trkpt>
      <trkpt lat="42.970555" lon="0.084587">
        <ele>1486.8</ele>
        <time>2013-01-06T13:40:57Z</time>
      </trkpt>
      <trkpt lat="42.970488" lon="0.084675">
        <ele>1485.4</ele>
        <time>2013-01-06T13:41:21Z</time>
      </trkpt>
      <trkpt lat="42.970389" lon="0.084745">
        <ele>1483.4</ele>
        <time>2013-01-06T13:41:31Z</time>
      </trkpt>
      <trkpt lat="42.970312" lon="0.084833">
        <ele>1481.1</ele>
        <time>2013-01-06T13:41:43Z</time>
      </trkpt>
      <trkpt lat="42.970268" lon="0.085014">
        <ele>1477.7</ele>
        <time>2013-01-06T13:41:57Z</time>
      </trkpt>
      <trkpt lat="42.970309" lon="0.085207">
        <ele>1474.8</ele>
        <time>2013-01-06T13:42:08Z</time>
      </trkpt>
      <trkpt lat="42.970369" lon="0.085433">
        <ele>1469.5</ele>
        <time>2013-01-06T13:42:26Z</time>
      </trkpt>
      <trkpt lat="42.970447" lon="0.085592">
        <ele>1464.7</ele>
        <time>2013-01-06T13:42:41Z</time>
      </trkpt>
      <trkpt lat="42.970459" lon="0.085796">
        <ele>1460.4</ele>
        <time>2013-01-06T13:42:57Z</time>
      </trkpt>
      <trkpt lat="42.970470" lon="0.086038">
        <ele>1456.5</ele>
        <time>2013-01-06T13:44:04Z</time>
      </trkpt>
      <trkpt lat="42.970511" lon="0.086212">
        <ele>1454.6</ele>
        <time>2013-01-06T13:44:19Z</time>
      </trkpt>
      <trkpt lat="42.970531" lon="0.086427">
        <ele>1447.4</ele>
        <time>2013-01-06T13:44:45Z</time>
      </trkpt>
      <trkpt lat="42.970551" lon="0.086717">
        <ele>1441.6</ele>
        <time>2013-01-06T13:45:06Z</time>
      </trkpt>
      <trkpt lat="42.970418" lon="0.086925">
        <ele>1437.3</ele>
        <time>2013-01-06T13:45:28Z</time>
      </trkpt>
      <trkpt lat="42.970349" lon="0.087059">
        <ele>1433.5</ele>
        <time>2013-01-06T13:45:43Z</time>
      </trkpt>
      <trkpt lat="42.970256" lon="0.087266">
        <ele>1426.2</ele>
        <time>2013-01-06T13:46:09Z</time>
      </trkpt>
      <trkpt lat="42.970210" lon="0.087547">
        <ele>1419.5</ele>
        <time>2013-01-06T13:46:35Z</time>
      </trkpt>
      <trkpt lat="42.970213" lon="0.087814">
        <ele>1411.3</ele>
        <time>2013-01-06T13:47:04Z</time>
      </trkpt>
      <trkpt lat="42.970212" lon="0.088015">
        <ele>1407.5</ele>
        <time>2013-01-06T13:47:42Z</time>
      </trkpt>
      <trkpt lat="42.970264" lon="0.088177">
        <ele>1402.2</ele>
        <time>2013-01-06T13:48:14Z</time>
      </trkpt>
      <trkpt lat="42.970295" lon="0.088376">
        <ele>1397.4</ele>
        <time>2013-01-06T13:48:32Z</time>
      </trkpt>
      <trkpt lat="42.970325" lon="0.088587">
        <ele>1393.6</ele>
        <time>2013-01-06T13:48:49Z</time>
      </trkpt>
      <trkpt lat="42.970291" lon="0.088763">
        <ele>1388.3</ele>
        <time>2013-01-06T13:49:10Z</time>
      </trkpt>
      <trkpt lat="42.970208" lon="0.089051">
        <ele>1378.7</ele>
        <time>2013-01-06T13:49:41Z</time>
      </trkpt>
      <trkpt lat="42.970177" lon="0.089308">
        <ele>1372.4</ele>
        <time>2013-01-06T13:50:05Z</time>
      </trkpt>
      <trkpt lat="42.970068" lon="0.089358">
        <ele>1367.6</ele>
        <time>2013-01-06T13:50:24Z</time>
      </trkpt>
      <trkpt lat="42.969916" lon="0.089357">
        <ele>1361.8</ele>
        <time>2013-01-06T13:51:06Z</time>
      </trkpt>
      <trkpt lat="42.969906" lon="0.089539">
        <ele>1356.1</ele>
        <time>2013-01-06T13:51:31Z</time>
      </trkpt>
      <trkpt lat="42.969959" lon="0.089721">
        <ele>1353.2</ele>
        <time>2013-01-06T13:51:46Z</time>
      </trkpt>
      <trkpt lat="42.969969" lon="0.089978">
        <ele>1347.9</ele>
        <time>2013-01-06T13:52:05Z</time>
      </trkpt>
      <trkpt lat="42.970016" lon="0.090162">
        <ele>1345.0</ele>
        <time>2013-01-06T13:52:20Z</time>
      </trkpt>
      <trkpt lat="42.970048" lon="0.090372">
        <ele>1342.6</ele>
        <time>2013-01-06T13:52:39Z</time>
      </trkpt>
      <trkpt lat="42.970088" lon="0.090648">
        <ele>1338.8</ele>
        <time>2013-01-06T13:53:01Z</time>
      </trkpt>
      <trkpt lat="42.970080" lon="0.090917">
        <ele>1335.4</ele>
        <time>2013-01-06T13:53:22Z</time>
      </trkpt>
      <trkpt lat="42.970178" lon="0.091166">
        <ele>1332.5</ele>
        <time>2013-01-06T13:53:41Z</time>
      </trkpt>
      <trkpt lat="42.970197" lon="0.091337">
        <ele>1333.0</ele>
        <time>2013-01-06T13:54:53Z</time>
      </trkpt>
      <trkpt lat="42.970278" lon="0.091509">
        <ele>1331.1</ele>
        <time>2013-01-06T13:55:11Z</time>
      </trkpt>
      <trkpt lat="42.970342" lon="0.091670">
        <ele>1330.1</ele>
        <time>2013-01-06T13:55:26Z</time>
      </trkpt>
      <trkpt lat="42.970422" lon="0.091823">
        <ele>1327.2</ele>
        <time>2013-01-06T13:55:41Z</time>
      </trkpt>
      <trkpt lat="42.970528" lon="0.092052">
        <ele>1322.9</ele>
        <time>2013-01-06T13:56:05Z</time>
      </trkpt>
      <trkpt lat="42.970629" lon="0.092222">
        <ele>1319.1</ele>
        <time>2013-01-06T13:56:31Z</time>
      </trkpt>
      <trkpt lat="42.970650" lon="0.092464">
        <ele>1315.2</ele>
        <time>2013-01-06T13:56:50Z</time>
      </trkpt>
      <trkpt lat="42.970669" lon="0.092676">
        <ele>1310.4</ele>
        <time>2013-01-06T13:57:08Z</time>
      </trkpt>
      <trkpt lat="42.970736" lon="0.092927">
        <ele>1305.6</ele>
        <time>2013-01-06T13:57:27Z</time>
      </trkpt>
      <trkpt lat="42.970768" lon="0.093166">
        <ele>1299.8</ele>
        <time>2013-01-06T13:57:49Z</time>
      </trkpt>
      <trkpt lat="42.970711" lon="0.093345">
        <ele>1291.2</ele>
        <time>2013-01-06T13:58:17Z</time>
      </trkpt>
      <trkpt lat="42.970590" lon="0.093381">
        <ele>1286.4</ele>
        <time>2013-01-06T13:58:41Z</time>
      </trkpt>
      <trkpt lat="42.970478" lon="0.093298">
        <ele>1282.1</ele>
        <time>2013-01-06T13:58:57Z</time>
      </trkpt>
      <trkpt lat="42.970364" lon="0.093279">
        <ele>1276.8</ele>
        <time>2013-01-06T13:59:19Z</time>
      </trkpt>
      <trkpt lat="42.970365" lon="0.093488">
        <ele>1271.0</ele>
        <time>2013-01-06T13:59:41Z</time>
      </trkpt>
      <trkpt lat="42.970427" lon="0.093766">
        <ele>1264.8</ele>
        <time>2013-01-06T14:00:03Z</time>
      </trkpt>
      <trkpt lat="42.970568" lon="0.093853">
        <ele>1261.9</ele>
        <time>2013-01-06T14:00:21Z</time>
      </trkpt>
      <trkpt lat="42.970682" lon="0.093931">
        <ele>1257.5</ele>
        <time>2013-01-06T14:00:41Z</time>
      </trkpt>
      <trkpt lat="42.970713" lon="0.094132">
        <ele>1254.2</ele>
        <time>2013-01-06T14:01:00Z</time>
      </trkpt>
      <trkpt lat="42.970775" lon="0.094412">
        <ele>1249.4</ele>
        <time>2013-01-06T14:01:20Z</time>
      </trkpt>
      <trkpt lat="42.970836" lon="0.094674">
        <ele>1244.1</ele>
        <time>2013-01-06T14:01:42Z</time>
      </trkpt>
      <trkpt lat="42.970856" lon="0.094897">
        <ele>1238.3</ele>
        <time>2013-01-06T14:02:03Z</time>
      </trkpt>
      <trkpt lat="42.970917" lon="0.095107">
        <ele>1233.5</ele>
        <time>2013-01-06T14:02:23Z</time>
      </trkpt>
      <trkpt lat="42.970957" lon="0.095437">
        <ele>1224.4</ele>
        <time>2013-01-06T14:02:55Z</time>
      </trkpt>
      <trkpt lat="42.971048" lon="0.095629">
        <ele>1219.1</ele>
        <time>2013-01-06T14:03:15Z</time>
      </trkpt>
      <trkpt lat="42.971107" lon="0.095820">
        <ele>1212.8</ele>
        <time>2013-01-06T14:03:39Z</time>
      </trkpt>
      <trkpt lat="42.971121" lon="0.095927">
        <ele>1210.9</ele>
        <time>2013-01-06T14:04:15Z</time>
      </trkpt>
      <trkpt lat="42.971196" lon="0.096028">
        <ele>1206.6</ele>
        <time>2013-01-06T14:04:54Z</time>
      </trkpt>
      <trkpt lat="42.971256" lon="0.096206">
        <ele>1200.3</ele>
        <time>2013-01-06T14:05:10Z</time>
      </trkpt>
      <trkpt lat="42.971354" lon="0.096361">
        <ele>1197.9</ele>
        <time>2013-01-06T14:05:26Z</time>
      </trkpt>
      <trkpt lat="42.971256" lon="0.096478">
        <ele>1191.2</ele>
        <time>2013-01-06T14:05:45Z</time>
      </trkpt>
      <trkpt lat="42.971196" lon="0.096630">
        <ele>1185.4</ele>
        <time>2013-01-06T14:06:06Z</time>
      </trkpt>
      <trkpt lat="42.971200" lon="0.096714">
        <ele>1181.6</ele>
        <time>2013-01-06T14:06:19Z</time>
      </trkpt>
      <trkpt lat="42.971115" lon="0.096799">
        <ele>1176.8</ele>
        <time>2013-01-06T14:06:52Z</time>
      </trkpt>
      <trkpt lat="42.970963" lon="0.096810">
        <ele>1172.9</ele>
        <time>2013-01-06T14:07:20Z</time>
      </trkpt>
      <trkpt lat="42.970829" lon="0.096737">
        <ele>1172.0</ele>
        <time>2013-01-06T14:07:33Z</time>
      </trkpt>
      <trkpt lat="42.970687" lon="0.096649">
        <ele>1168.6</ele>
        <time>2013-01-06T14:07:48Z</time>
      </trkpt>
      <trkpt lat="42.970564" lon="0.096664">
        <ele>1166.2</ele>
        <time>2013-01-06T14:08:00Z</time>
      </trkpt>
      <trkpt lat="42.970447" lon="0.096624">
        <ele>1163.8</ele>
        <time>2013-01-06T14:08:12Z</time>
      </trkpt>
      <trkpt lat="42.970332" lon="0.096616">
        <ele>1161.9</ele>
        <time>2013-01-06T14:08:24Z</time>
      </trkpt>
      <trkpt lat="42.970204" lon="0.096555">
        <ele>1159.0</ele>
        <time>2013-01-06T14:08:37Z</time>
      </trkpt>
      <trkpt lat="42.970062" lon="0.096455">
        <ele>1156.1</ele>
        <time>2013-01-06T14:08:50Z</time>
      </trkpt>
      <trkpt lat="42.969953" lon="0.096381">
        <ele>1154.7</ele>
        <time>2013-01-06T14:09:00Z</time>
      </trkpt>
      <trkpt lat="42.969884" lon="0.096262">
        <ele>1152.8</ele>
        <time>2013-01-06T14:09:12Z</time>
      </trkpt>
      <trkpt lat="42.969816" lon="0.096166">
        <ele>1149.9</ele>
        <time>2013-01-06T14:09:23Z</time>
      </trkpt>
      <trkpt lat="42.969691" lon="0.096076">
        <ele>1147.5</ele>
        <time>2013-01-06T14:09:35Z</time>
      </trkpt>
      <trkpt lat="42.969601" lon="0.095973">
        <ele>1144.6</ele>
        <time>2013-01-06T14:09:47Z</time>
      </trkpt>
      <trkpt lat="42.969511" lon="0.095957">
        <ele>1142.7</ele>
        <time>2013-01-06T14:09:57Z</time>
      </trkpt>
      <trkpt lat="42.969412" lon="0.095979">
        <ele>1140.3</ele>
        <time>2013-01-06T14:10:09Z</time>
      </trkpt>
      <trkpt lat="42.969235" lon="0.095959">
        <ele>1136.9</ele>
        <time>2013-01-06T14:10:25Z</time>
      </trkpt>
      <trkpt lat="42.969097" lon="0.095930">
        <ele>1135.0</ele>
        <time>2013-01-06T14:10:35Z</time>
      </trkpt>
      <trkpt lat="42.968987" lon="0.095914">
        <ele>1136.4</ele>
        <time>2013-01-06T14:10:46Z</time>
      </trkpt>
      <trkpt lat="42.968886" lon="0.095847">
        <ele>1130.2</ele>
        <time>2013-01-06T14:10:59Z</time>
      </trkpt>
      <trkpt lat="42.968792" lon="0.095801">
        <ele>1127.8</ele>
        <time>2013-01-06T14:11:09Z</time>
      </trkpt>
      <trkpt lat="42.968678" lon="0.095719">
        <ele>1125.4</ele>
        <time>2013-01-06T14:11:19Z</time>
      </trkpt>
      <trkpt lat="42.968581" lon="0.095663">
        <ele>1123.4</ele>
        <time>2013-01-06T14:11:29Z</time>
      </trkpt>
      <trkpt lat="42.968450" lon="0.095703">
        <ele>1120.1</ele>
        <time>2013-01-06T14:11:44Z</time>
      </trkpt>
      <trkpt lat="42.968287" lon="0.095603">
        <ele>1116.7</ele>
        <time>2013-01-06T14:12:00Z</time>
      </trkpt>
      <trkpt lat="42.968170" lon="0.095548">
        <ele>1114.8</ele>
        <time>2013-01-06T14:12:10Z</time>
      </trkpt>
      <trkpt lat="42.968077" lon="0.095484">
        <ele>1113.3</ele>
        <time>2013-01-06T14:12:20Z</time>
      </trkpt>
      <trkpt lat="42.967958" lon="0.095423">
        <ele>1110.5</ele>
        <time>2013-01-06T14:12:30Z</time>
      </trkpt>
      <trkpt lat="42.967855" lon="0.095353">
        <ele>1108.1</ele>
        <time>2013-01-06T14:12:41Z</time>
      </trkpt>
      <trkpt lat="42.967753" lon="0.095283">
        <ele>1106.6</ele>
        <time>2013-01-06T14:12:50Z</time>
      </trkpt>
      <trkpt lat="42.967663" lon="0.095190">
        <ele>1104.2</ele>
        <time>2013-01-06T14:13:00Z</time>
      </trkpt>
      <trkpt lat="42.967575" lon="0.095107">
        <ele>1101.8</ele>
        <time>2013-01-06T14:13:09Z</time>
      </trkpt>
      <trkpt lat="42.967540" lon="0.094987">
        <ele>1099.4</ele>
        <time>2013-01-06T14:13:19Z</time>
      </trkpt>
      <trkpt lat="42.967518" lon="0.094847">
        <ele>1097.5</ele>
        <time>2013-01-06T14:13:29Z</time>
      </trkpt>
      <trkpt lat="42.967419" lon="0.094829">
        <ele>1097.0</ele>
        <time>2013-01-06T14:13:38Z</time>
      </trkpt>
      <trkpt lat="42.967336" lon="0.094866">
        <ele>1094.6</ele>
        <time>2013-01-06T14:13:45Z</time>
      </trkpt>
      <trkpt lat="42.967182" lon="0.094951">
        <ele>1093.2</ele>
        <time>2013-01-06T14:13:57Z</time>
      </trkpt>
      <trkpt lat="42.967055" lon="0.094866">
        <ele>1090.3</ele>
        <time>2013-01-06T14:14:10Z</time>
      </trkpt>
      <trkpt lat="42.966983" lon="0.094708">
        <ele>1088.3</ele>
        <time>2013-01-06T14:14:22Z</time>
      </trkpt>
      <trkpt lat="42.966919" lon="0.094604">
        <ele>1085.5</ele>
        <time>2013-01-06T14:14:35Z</time>
      </trkpt>
      <trkpt lat="42.966816" lon="0.094528">
        <ele>1085.0</ele>
        <time>2013-01-06T14:14:46Z</time>
      </trkpt>
      <trkpt lat="42.966715" lon="0.094465">
        <ele>1084.0</ele>
        <time>2013-01-06T14:14:55Z</time>
      </trkpt>
      <trkpt lat="42.966620" lon="0.094391">
        <ele>1082.1</ele>
        <time>2013-01-06T14:15:04Z</time>
      </trkpt>
      <trkpt lat="42.966527" lon="0.094304">
        <ele>1080.7</ele>
        <time>2013-01-06T14:15:12Z</time>
      </trkpt>
      <trkpt lat="42.966455" lon="0.094231">
        <ele>1079.7</ele>
        <time>2013-01-06T14:15:20Z</time>
      </trkpt>
      <trkpt lat="42.966382" lon="0.094156">
        <ele>1078.7</ele>
        <time>2013-01-06T14:15:28Z</time>
      </trkpt>
      <trkpt lat="42.966328" lon="0.094023">
        <ele>1077.3</ele>
        <time>2013-01-06T14:15:37Z</time>
      </trkpt>
      <trkpt lat="42.966262" lon="0.093916">
        <ele>1076.3</ele>
        <time>2013-01-06T14:15:47Z</time>
      </trkpt>
      <trkpt lat="42.966164" lon="0.093840">
        <ele>1075.4</ele>
        <time>2013-01-06T14:15:58Z</time>
      </trkpt>
      <trkpt lat="42.966070" lon="0.093786">
        <ele>1074.4</ele>
        <time>2013-01-06T14:16:07Z</time>
      </trkpt>
      <trkpt lat="42.965968" lon="0.093761">
        <ele>1073.4</ele>
        <time>2013-01-06T14:16:15Z</time>
      </trkpt>
      <trkpt lat="42.965865" lon="0.093798">
        <ele>1071.5</ele>
        <time>2013-01-06T14:16:25Z</time>
      </trkpt>
      <trkpt lat="42.965805" lon="0.093907">
        <ele>1070.1</ele>
        <time>2013-01-06T14:16:35Z</time>
      </trkpt>
      <trkpt lat="42.965773" lon="0.094021">
        <ele>1069.1</ele>
        <time>2013-01-06T14:16:44Z</time>
      </trkpt>
      <trkpt lat="42.965788" lon="0.094150">
        <ele>1066.7</ele>
        <time>2013-01-06T14:16:56Z</time>
      </trkpt>
      <trkpt lat="42.965800" lon="0.094166">
        <ele>1065.3</ele>
        <time>2013-01-06T14:18:18Z</time>
      </trkpt>
    </trkseg>
  </trk>
</gpx>
